<?xml version="1.0" encoding="utf-8"?>
<gpx xmlns:xsi="http://www.w3.org/2001/XMLSchema-instance" xmlns:xsd="http://www.w3.org/2001/XMLSchema" version="1.1" creator="Shapelink.com" xmlns="http://www.topografix.com/GPX/1/1" xmlns:gpxtpx="http://www.garmin.com/xmlschemas/TrackPointExtension/v1">
  <metadata>
    <name>Ejecutar 7.01 km, 2020-02-29</name>
    <desc></desc>
    <author><name>Per Rooth</name></author> 
    <time>2020-02-29T11:06:07Z</time>
  </metadata>
  <trk>
    <name>Ejecutar 7.01 km, 2020-02-29</name>
    <trkseg>
      <trkpt lat="55.904610740922" lon="14.269356785918">
        <ele>7.8</ele>
        <time>2020-02-29T11:06:07Z</time>
      </trkpt>
      <trkpt lat="55.904559862789" lon="14.269384865283">
        <ele>7.6</ele>
        <time>2020-02-29T11:06:09Z</time>
      </trkpt>
      <trkpt lat="55.904487862268" lon="14.269450411741">
        <ele>7.4</ele>
        <time>2020-02-29T11:06:12Z</time>
      </trkpt>
      <trkpt lat="55.904413011901" lon="14.269483268789">
        <ele>7</ele>
        <time>2020-02-29T11:06:14Z</time>
      </trkpt>
      <trkpt lat="55.904365151252" lon="14.269472623776">
        <ele>6.6</ele>
        <time>2020-02-29T11:06:16Z</time>
      </trkpt>
      <trkpt lat="55.904148646775" lon="14.269485615721">
        <ele>6.4</ele>
        <time>2020-02-29T11:06:23Z</time>
      </trkpt>
      <trkpt lat="55.903955527799" lon="14.269557029509">
        <ele>5.8</ele>
        <time>2020-02-29T11:06:29Z</time>
      </trkpt>
      <trkpt lat="55.903940608017" lon="14.269550323989">
        <ele>6</ele>
        <time>2020-02-29T11:06:30Z</time>
      </trkpt>
      <trkpt lat="55.903733994182" lon="14.26954688741">
        <ele>6.2</ele>
        <time>2020-02-29T11:06:53Z</time>
      </trkpt>
      <trkpt lat="55.903699879849" lon="14.269547893238">
        <ele>6.4</ele>
        <time>2020-02-29T11:06:54Z</time>
      </trkpt>
      <trkpt lat="55.903507934339" lon="14.26959634062">
        <ele>6.2</ele>
        <time>2020-02-29T11:07:01Z</time>
      </trkpt>
      <trkpt lat="55.903487482503" lon="14.269626683098">
        <ele>5.4</ele>
        <time>2020-02-29T11:07:03Z</time>
      </trkpt>
      <trkpt lat="55.90333434519" lon="14.269717375256">
        <ele>5</ele>
        <time>2020-02-29T11:07:10Z</time>
      </trkpt>
      <trkpt lat="55.903290004939" lon="14.269759871489">
        <ele>5.2</ele>
        <time>2020-02-29T11:07:12Z</time>
      </trkpt>
      <trkpt lat="55.903224123205" lon="14.269788956682">
        <ele>6.4</ele>
        <time>2020-02-29T11:07:15Z</time>
      </trkpt>
      <trkpt lat="55.903155307806" lon="14.269836482055">
        <ele>7</ele>
        <time>2020-02-29T11:07:20Z</time>
      </trkpt>
      <trkpt lat="55.903085318941" lon="14.269894903898">
        <ele>6.8</ele>
        <time>2020-02-29T11:07:23Z</time>
      </trkpt>
      <trkpt lat="55.903019018112" lon="14.27005399236">
        <ele>7</ele>
        <time>2020-02-29T11:07:27Z</time>
      </trkpt>
      <trkpt lat="55.902999153009" lon="14.270124148863">
        <ele>7.2</ele>
        <time>2020-02-29T11:07:29Z</time>
      </trkpt>
      <trkpt lat="55.902996889896" lon="14.27019397009">
        <ele>6.8</ele>
        <time>2020-02-29T11:07:31Z</time>
      </trkpt>
      <trkpt lat="55.902969061988" lon="14.270240573454">
        <ele>6.2</ele>
        <time>2020-02-29T11:07:34Z</time>
      </trkpt>
      <trkpt lat="55.902921704253" lon="14.270263120765">
        <ele>5.6</ele>
        <time>2020-02-29T11:07:40Z</time>
      </trkpt>
      <trkpt lat="55.902881052038" lon="14.270255409417">
        <ele>5.6</ele>
        <time>2020-02-29T11:07:45Z</time>
      </trkpt>
      <trkpt lat="55.90272498106" lon="14.27009590186">
        <ele>6.2</ele>
        <time>2020-02-29T11:07:53Z</time>
      </trkpt>
      <trkpt lat="55.902577962534" lon="14.269901693237">
        <ele>7</ele>
        <time>2020-02-29T11:08:03Z</time>
      </trkpt>
      <trkpt lat="55.902482660331" lon="14.269762888973">
        <ele>6.4</ele>
        <time>2020-02-29T11:08:08Z</time>
      </trkpt>
      <trkpt lat="55.902463801056" lon="14.269685691674">
        <ele>7</ele>
        <time>2020-02-29T11:08:12Z</time>
      </trkpt>
      <trkpt lat="55.902394566562" lon="14.269517131665">
        <ele>6.4</ele>
        <time>2020-02-29T11:08:19Z</time>
      </trkpt>
      <trkpt lat="55.90239221963" lon="14.269488549386">
        <ele>6.4</ele>
        <time>2020-02-29T11:08:21Z</time>
      </trkpt>
      <trkpt lat="55.902331702312" lon="14.269365754551">
        <ele>6.6</ele>
        <time>2020-02-29T11:08:25Z</time>
      </trkpt>
      <trkpt lat="55.902286942966" lon="14.269251593073">
        <ele>6.8</ele>
        <time>2020-02-29T11:08:30Z</time>
      </trkpt>
      <trkpt lat="55.902139337707" lon="14.26905570807">
        <ele>7</ele>
        <time>2020-02-29T11:08:36Z</time>
      </trkpt>
      <trkpt lat="55.902054009965" lon="14.268926123896">
        <ele>6.4</ele>
        <time>2020-02-29T11:08:41Z</time>
      </trkpt>
      <trkpt lat="55.901945045265" lon="14.268714397102">
        <ele>6.8</ele>
        <time>2020-02-29T11:08:48Z</time>
      </trkpt>
      <trkpt lat="55.901828620674" lon="14.268417091109">
        <ele>7.2</ele>
        <time>2020-02-29T11:08:57Z</time>
      </trkpt>
      <trkpt lat="55.901705071468" lon="14.268143422074">
        <ele>7</ele>
        <time>2020-02-29T11:09:05Z</time>
      </trkpt>
      <trkpt lat="55.901684535813" lon="14.268084162041">
        <ele>7.6</ele>
        <time>2020-02-29T11:09:08Z</time>
      </trkpt>
      <trkpt lat="55.901676153913" lon="14.268069912811">
        <ele>8</ele>
        <time>2020-02-29T11:09:09Z</time>
      </trkpt>
      <trkpt lat="55.901642207218" lon="14.267986764363">
        <ele>8.6</ele>
        <time>2020-02-29T11:09:13Z</time>
      </trkpt>
      <trkpt lat="55.901637429535" lon="14.267927923425">
        <ele>9</ele>
        <time>2020-02-29T11:09:15Z</time>
      </trkpt>
      <trkpt lat="55.901541372961" lon="14.267667833068">
        <ele>7.6</ele>
        <time>2020-02-29T11:09:22Z</time>
      </trkpt>
      <trkpt lat="55.901523351876" lon="14.267609327406">
        <ele>6.4</ele>
        <time>2020-02-29T11:09:24Z</time>
      </trkpt>
      <trkpt lat="55.901499631099" lon="14.267577224729">
        <ele>6</ele>
        <time>2020-02-29T11:09:27Z</time>
      </trkpt>
      <trkpt lat="55.901483202575" lon="14.267514360479">
        <ele>6</ele>
        <time>2020-02-29T11:09:32Z</time>
      </trkpt>
      <trkpt lat="55.901391169313" lon="14.267335658371">
        <ele>6.2</ele>
        <time>2020-02-29T11:09:36Z</time>
      </trkpt>
      <trkpt lat="55.901306344485" lon="14.26717900066">
        <ele>6.4</ele>
        <time>2020-02-29T11:09:39Z</time>
      </trkpt>
      <trkpt lat="55.901201738373" lon="14.267061989336">
        <ele>8</ele>
        <time>2020-02-29T11:09:44Z</time>
      </trkpt>
      <trkpt lat="55.901190506627" lon="14.267049416486">
        <ele>8.8</ele>
        <time>2020-02-29T11:09:45Z</time>
      </trkpt>
      <trkpt lat="55.901179023424" lon="14.267032568867">
        <ele>9.6</ele>
        <time>2020-02-29T11:09:46Z</time>
      </trkpt>
      <trkpt lat="55.901174916293" lon="14.267022845863">
        <ele>10.4</ele>
        <time>2020-02-29T11:09:47Z</time>
      </trkpt>
      <trkpt lat="55.901172150266" lon="14.26700633352">
        <ele>10.8</ele>
        <time>2020-02-29T11:09:48Z</time>
      </trkpt>
      <trkpt lat="55.901182460003" lon="14.266944391279">
        <ele>12</ele>
        <time>2020-02-29T11:09:51Z</time>
      </trkpt>
      <trkpt lat="55.901183214374" lon="14.266862583935">
        <ele>13.2</ele>
        <time>2020-02-29T11:09:55Z</time>
      </trkpt>
      <trkpt lat="55.901179777795" lon="14.266851184551">
        <ele>13.6</ele>
        <time>2020-02-29T11:09:56Z</time>
      </trkpt>
      <trkpt lat="55.90117265318" lon="14.266832576733">
        <ele>14</ele>
        <time>2020-02-29T11:09:58Z</time>
      </trkpt>
      <trkpt lat="55.901209282083" lon="14.266664854914">
        <ele>13.4</ele>
        <time>2020-02-29T11:10:13Z</time>
      </trkpt>
      <trkpt lat="55.90130257263" lon="14.266456983794">
        <ele>12</ele>
        <time>2020-02-29T11:10:20Z</time>
      </trkpt>
      <trkpt lat="55.901366191251" lon="14.266130676427">
        <ele>11.2</ele>
        <time>2020-02-29T11:10:28Z</time>
      </trkpt>
      <trkpt lat="55.90137130421" lon="14.266094131343">
        <ele>11</ele>
        <time>2020-02-29T11:10:29Z</time>
      </trkpt>
      <trkpt lat="55.901383374146" lon="14.265986088652">
        <ele>9.8</ele>
        <time>2020-02-29T11:10:32Z</time>
      </trkpt>
      <trkpt lat="55.901392342779" lon="14.265941748401">
        <ele>8.8</ele>
        <time>2020-02-29T11:10:34Z</time>
      </trkpt>
      <trkpt lat="55.901404915629" lon="14.265924146411">
        <ele>8.2</ele>
        <time>2020-02-29T11:10:35Z</time>
      </trkpt>
      <trkpt lat="55.901416901746" lon="14.265897743426">
        <ele>7.8</ele>
        <time>2020-02-29T11:10:37Z</time>
      </trkpt>
      <trkpt lat="55.901414387176" lon="14.265838651031">
        <ele>7.8</ele>
        <time>2020-02-29T11:10:42Z</time>
      </trkpt>
      <trkpt lat="55.901276924016" lon="14.265549475481">
        <ele>7.4</ele>
        <time>2020-02-29T11:10:59Z</time>
      </trkpt>
      <trkpt lat="55.901262758605" lon="14.26553195731">
        <ele>7.8</ele>
        <time>2020-02-29T11:11:00Z</time>
      </trkpt>
      <trkpt lat="55.901235768887" lon="14.265471942906">
        <ele>9.4</ele>
        <time>2020-02-29T11:11:03Z</time>
      </trkpt>
      <trkpt lat="55.901216658155" lon="14.265444450274">
        <ele>10.4</ele>
        <time>2020-02-29T11:11:05Z</time>
      </trkpt>
      <trkpt lat="55.901250101936" lon="14.265508823266">
        <ele>11.2</ele>
        <time>2020-02-29T11:11:09Z</time>
      </trkpt>
      <trkpt lat="55.901288658676" lon="14.265668666099">
        <ele>9.6</ele>
        <time>2020-02-29T11:11:13Z</time>
      </trkpt>
      <trkpt lat="55.901272146333" lon="14.265703283346">
        <ele>9</ele>
        <time>2020-02-29T11:11:14Z</time>
      </trkpt>
      <trkpt lat="55.901225878245" lon="14.265860863066">
        <ele>10.2</ele>
        <time>2020-02-29T11:11:19Z</time>
      </trkpt>
      <trkpt lat="55.901186734772" lon="14.265979383132">
        <ele>11.4</ele>
        <time>2020-02-29T11:11:23Z</time>
      </trkpt>
      <trkpt lat="55.901172736999" lon="14.266065465245">
        <ele>11.8</ele>
        <time>2020-02-29T11:11:27Z</time>
      </trkpt>
      <trkpt lat="55.901050612716" lon="14.266102597062">
        <ele>10.8</ele>
        <time>2020-02-29T11:11:42Z</time>
      </trkpt>
      <trkpt lat="55.900836874266" lon="14.266174429945">
        <ele>11.6</ele>
        <time>2020-02-29T11:11:51Z</time>
      </trkpt>
      <trkpt lat="55.900762191537" lon="14.266163784932">
        <ele>9.8</ele>
        <time>2020-02-29T11:11:56Z</time>
      </trkpt>
      <trkpt lat="55.900762107718" lon="14.266176860696">
        <ele>9.4</ele>
        <time>2020-02-29T11:11:57Z</time>
      </trkpt>
      <trkpt lat="55.900700333115" lon="14.26603654769">
        <ele>9.4</ele>
        <time>2020-02-29T11:12:11Z</time>
      </trkpt>
      <trkpt lat="55.900717180734" lon="14.26570127169">
        <ele>9</ele>
        <time>2020-02-29T11:12:20Z</time>
      </trkpt>
      <trkpt lat="55.900732519611" lon="14.26557973414">
        <ele>8.8</ele>
        <time>2020-02-29T11:12:23Z</time>
      </trkpt>
      <trkpt lat="55.900774261473" lon="14.265503542669">
        <ele>8.8</ele>
        <time>2020-02-29T11:12:26Z</time>
      </trkpt>
      <trkpt lat="55.900912646642" lon="14.265188047953">
        <ele>9.2</ele>
        <time>2020-02-29T11:12:35Z</time>
      </trkpt>
      <trkpt lat="55.901010128139" lon="14.264907002846">
        <ele>10.6</ele>
        <time>2020-02-29T11:12:40Z</time>
      </trkpt>
      <trkpt lat="55.901028400681" lon="14.264856962903">
        <ele>11</ele>
        <time>2020-02-29T11:12:41Z</time>
      </trkpt>
      <trkpt lat="55.90109386332" lon="14.264732659326">
        <ele>12</ele>
        <time>2020-02-29T11:12:45Z</time>
      </trkpt>
      <trkpt lat="55.901242390588" lon="14.264624029902">
        <ele>12.8</ele>
        <time>2020-02-29T11:12:53Z</time>
      </trkpt>
      <trkpt lat="55.901397874833" lon="14.264465695811">
        <ele>10.8</ele>
        <time>2020-02-29T11:13:01Z</time>
      </trkpt>
      <trkpt lat="55.901406256733" lon="14.26444147212">
        <ele>10.4</ele>
        <time>2020-02-29T11:13:02Z</time>
      </trkpt>
      <trkpt lat="55.901367280898" lon="14.26407937404">
        <ele>9.8</ele>
        <time>2020-02-29T11:13:10Z</time>
      </trkpt>
      <trkpt lat="55.901375243703" lon="14.263925566175">
        <ele>9.6</ele>
        <time>2020-02-29T11:13:14Z</time>
      </trkpt>
      <trkpt lat="55.901385469621" lon="14.263902264493">
        <ele>9.4</ele>
        <time>2020-02-29T11:13:15Z</time>
      </trkpt>
      <trkpt lat="55.901397120462" lon="14.263787935377">
        <ele>9.2</ele>
        <time>2020-02-29T11:13:17Z</time>
      </trkpt>
      <trkpt lat="55.901369879287" lon="14.263726412231">
        <ele>8.6</ele>
        <time>2020-02-29T11:13:24Z</time>
      </trkpt>
      <trkpt lat="55.901356635885" lon="14.264038554187">
        <ele>9.2</ele>
        <time>2020-02-29T11:14:12Z</time>
      </trkpt>
      <trkpt lat="55.901415057728" lon="14.264152967122">
        <ele>9.6</ele>
        <time>2020-02-29T11:14:17Z</time>
      </trkpt>
      <trkpt lat="55.901459565617" lon="14.264190601853">
        <ele>9.4</ele>
        <time>2020-02-29T11:14:21Z</time>
      </trkpt>
      <trkpt lat="55.901553107621" lon="14.264417835162">
        <ele>9.6</ele>
        <time>2020-02-29T11:14:36Z</time>
      </trkpt>
      <trkpt lat="55.901597447872" lon="14.264597794555">
        <ele>9.6</ele>
        <time>2020-02-29T11:14:40Z</time>
      </trkpt>
      <trkpt lat="55.901672298239" lon="14.264811784462">
        <ele>10.8</ele>
        <time>2020-02-29T11:14:45Z</time>
      </trkpt>
      <trkpt lat="55.901742790018" lon="14.265124345513">
        <ele>10.4</ele>
        <time>2020-02-29T11:14:51Z</time>
      </trkpt>
      <trkpt lat="55.901783358414" lon="14.265361385645">
        <ele>10</ele>
        <time>2020-02-29T11:14:58Z</time>
      </trkpt>
      <trkpt lat="55.901784280423" lon="14.265409497751">
        <ele>9.6</ele>
        <time>2020-02-29T11:15:00Z</time>
      </trkpt>
      <trkpt lat="55.901808587933" lon="14.265557773562">
        <ele>9.2</ele>
        <time>2020-02-29T11:15:04Z</time>
      </trkpt>
      <trkpt lat="55.901962898712" lon="14.265770757641">
        <ele>10</ele>
        <time>2020-02-29T11:15:14Z</time>
      </trkpt>
      <trkpt lat="55.902071695774" lon="14.265825910543">
        <ele>10.6</ele>
        <time>2020-02-29T11:15:18Z</time>
      </trkpt>
      <trkpt lat="55.902265736759" lon="14.265765728501">
        <ele>10.8</ele>
        <time>2020-02-29T11:15:26Z</time>
      </trkpt>
      <trkpt lat="55.902456844079" lon="14.265731949444">
        <ele>10.4</ele>
        <time>2020-02-29T11:15:38Z</time>
      </trkpt>
      <trkpt lat="55.902634875635" lon="14.265648214263">
        <ele>10.2</ele>
        <time>2020-02-29T11:15:45Z</time>
      </trkpt>
      <trkpt lat="55.902682065732" lon="14.265595324474">
        <ele>10.6</ele>
        <time>2020-02-29T11:15:47Z</time>
      </trkpt>
      <trkpt lat="55.902848362628" lon="14.265545452169">
        <ele>9.6</ele>
        <time>2020-02-29T11:15:55Z</time>
      </trkpt>
      <trkpt lat="55.903053300083" lon="14.265612926464">
        <ele>10</ele>
        <time>2020-02-29T11:16:02Z</time>
      </trkpt>
      <trkpt lat="55.90326980456" lon="14.265712335798">
        <ele>9.6</ele>
        <time>2020-02-29T11:16:08Z</time>
      </trkpt>
      <trkpt lat="55.903392264119" lon="14.265775367686">
        <ele>10.6</ele>
        <time>2020-02-29T11:16:11Z</time>
      </trkpt>
      <trkpt lat="55.903574654263" lon="14.26591584833">
        <ele>10</ele>
        <time>2020-02-29T11:16:16Z</time>
      </trkpt>
      <trkpt lat="55.903602817447" lon="14.265929175551">
        <ele>9.6</ele>
        <time>2020-02-29T11:16:17Z</time>
      </trkpt>
      <trkpt lat="55.903733072173" lon="14.266158169059">
        <ele>9.2</ele>
        <time>2020-02-29T11:16:25Z</time>
      </trkpt>
      <trkpt lat="55.903974470893" lon="14.266149200426">
        <ele>9.2</ele>
        <time>2020-02-29T11:16:30Z</time>
      </trkpt>
      <trkpt lat="55.904103971248" lon="14.266177447429">
        <ele>9.4</ele>
        <time>2020-02-29T11:16:34Z</time>
      </trkpt>
      <trkpt lat="55.904141186884" lon="14.266412559724">
        <ele>9.4</ele>
        <time>2020-02-29T11:16:49Z</time>
      </trkpt>
      <trkpt lat="55.904101456678" lon="14.266758061642">
        <ele>9.6</ele>
        <time>2020-02-29T11:16:56Z</time>
      </trkpt>
      <trkpt lat="55.904022834456" lon="14.267078334041">
        <ele>9.8</ele>
        <time>2020-02-29T11:17:02Z</time>
      </trkpt>
      <trkpt lat="55.904015961298" lon="14.267138516083">
        <ele>10.6</ele>
        <time>2020-02-29T11:17:03Z</time>
      </trkpt>
      <trkpt lat="55.903999365136" lon="14.267264160764">
        <ele>11.8</ele>
        <time>2020-02-29T11:17:05Z</time>
      </trkpt>
      <trkpt lat="55.903955276342" lon="14.267607399569">
        <ele>10.6</ele>
        <time>2020-02-29T11:17:10Z</time>
      </trkpt>
      <trkpt lat="55.903929376271" lon="14.26794594451">
        <ele>9.6</ele>
        <time>2020-02-29T11:17:15Z</time>
      </trkpt>
      <trkpt lat="55.903925436778" lon="14.268279879406">
        <ele>9.4</ele>
        <time>2020-02-29T11:17:19Z</time>
      </trkpt>
      <trkpt lat="55.903959467292" lon="14.268629404636">
        <ele>9</ele>
        <time>2020-02-29T11:17:23Z</time>
      </trkpt>
      <trkpt lat="55.903978661843" lon="14.268886309871">
        <ele>8.6</ele>
        <time>2020-02-29T11:17:26Z</time>
      </trkpt>
      <trkpt lat="55.90398394244" lon="14.269029388904">
        <ele>8.2</ele>
        <time>2020-02-29T11:17:28Z</time>
      </trkpt>
      <trkpt lat="55.903973129789" lon="14.269175904516">
        <ele>7.8</ele>
        <time>2020-02-29T11:17:32Z</time>
      </trkpt>
      <trkpt lat="55.90386072851" lon="14.269232314703">
        <ele>7.6</ele>
        <time>2020-02-29T11:17:36Z</time>
      </trkpt>
      <trkpt lat="55.903667441896" lon="14.269180514561">
        <ele>8</ele>
        <time>2020-02-29T11:17:42Z</time>
      </trkpt>
      <trkpt lat="55.903475077291" lon="14.269072052775">
        <ele>7.8</ele>
        <time>2020-02-29T11:17:51Z</time>
      </trkpt>
      <trkpt lat="55.903418415647" lon="14.269023689212">
        <ele>8</ele>
        <time>2020-02-29T11:17:53Z</time>
      </trkpt>
      <trkpt lat="55.90329830302" lon="14.26875898881">
        <ele>8</ele>
        <time>2020-02-29T11:17:59Z</time>
      </trkpt>
      <trkpt lat="55.903171233416" lon="14.268483559576">
        <ele>7.8</ele>
        <time>2020-02-29T11:18:05Z</time>
      </trkpt>
      <trkpt lat="55.903012564049" lon="14.268280885234">
        <ele>8.2</ele>
        <time>2020-02-29T11:18:11Z</time>
      </trkpt>
      <trkpt lat="55.902838639624" lon="14.268114755976">
        <ele>8.6</ele>
        <time>2020-02-29T11:18:17Z</time>
      </trkpt>
      <trkpt lat="55.90268223337" lon="14.267931192366">
        <ele>8</ele>
        <time>2020-02-29T11:18:24Z</time>
      </trkpt>
      <trkpt lat="55.902539908708" lon="14.267772942094">
        <ele>8</ele>
        <time>2020-02-29T11:18:29Z</time>
      </trkpt>
      <trkpt lat="55.90243245275" lon="14.267490136788">
        <ele>8.6</ele>
        <time>2020-02-29T11:18:36Z</time>
      </trkpt>
      <trkpt lat="55.902301611291" lon="14.267254605398">
        <ele>8.2</ele>
        <time>2020-02-29T11:18:42Z</time>
      </trkpt>
      <trkpt lat="55.90222877258" lon="14.267134492771">
        <ele>8.2</ele>
        <time>2020-02-29T11:18:46Z</time>
      </trkpt>
      <trkpt lat="55.902171272746" lon="14.266951683532">
        <ele>9.2</ele>
        <time>2020-02-29T11:18:52Z</time>
      </trkpt>
      <trkpt lat="55.902111593618" lon="14.266852190379">
        <ele>9.6</ele>
        <time>2020-02-29T11:18:54Z</time>
      </trkpt>
      <trkpt lat="55.90196306635" lon="14.266739537643">
        <ele>10.2</ele>
        <time>2020-02-29T11:18:59Z</time>
      </trkpt>
      <trkpt lat="55.90183230871" lon="14.266668626769">
        <ele>8.8</ele>
        <time>2020-02-29T11:19:12Z</time>
      </trkpt>
      <trkpt lat="55.901770701745" lon="14.26669368865">
        <ele>8.8</ele>
        <time>2020-02-29T11:19:15Z</time>
      </trkpt>
      <trkpt lat="55.901716387033" lon="14.266689916795">
        <ele>9.4</ele>
        <time>2020-02-29T11:19:18Z</time>
      </trkpt>
      <trkpt lat="55.90160348284" lon="14.266689749157">
        <ele>10</ele>
        <time>2020-02-29T11:19:24Z</time>
      </trkpt>
      <trkpt lat="55.901491249199" lon="14.266777926745">
        <ele>8.4</ele>
        <time>2020-02-29T11:19:30Z</time>
      </trkpt>
      <trkpt lat="55.901323275923" lon="14.266991749014">
        <ele>7.6</ele>
        <time>2020-02-29T11:19:36Z</time>
      </trkpt>
      <trkpt lat="55.90117265318" lon="14.267229794974">
        <ele>9.6</ele>
        <time>2020-02-29T11:19:43Z</time>
      </trkpt>
      <trkpt lat="55.901075506959" lon="14.267329623403">
        <ele>10.8</ele>
        <time>2020-02-29T11:19:47Z</time>
      </trkpt>
      <trkpt lat="55.900998225841" lon="14.267372371093">
        <ele>11.8</ele>
        <time>2020-02-29T11:19:51Z</time>
      </trkpt>
      <trkpt lat="55.90098238405" lon="14.26739273911">
        <ele>12</ele>
        <time>2020-02-29T11:19:52Z</time>
      </trkpt>
      <trkpt lat="55.900875598644" lon="14.2675528334">
        <ele>10.8</ele>
        <time>2020-02-29T11:19:56Z</time>
      </trkpt>
      <trkpt lat="55.900846094356" lon="14.267665486136">
        <ele>9.4</ele>
        <time>2020-02-29T11:19:58Z</time>
      </trkpt>
      <trkpt lat="55.900781134631" lon="14.267929013072">
        <ele>8.8</ele>
        <time>2020-02-29T11:20:04Z</time>
      </trkpt>
      <trkpt lat="55.900702763866" lon="14.268006461828">
        <ele>8.6</ele>
        <time>2020-02-29T11:20:12Z</time>
      </trkpt>
      <trkpt lat="55.900686754437" lon="14.267991542046">
        <ele>8.4</ele>
        <time>2020-02-29T11:20:14Z</time>
      </trkpt>
      <trkpt lat="55.900673511035" lon="14.267973437142">
        <ele>8.2</ele>
        <time>2020-02-29T11:20:15Z</time>
      </trkpt>
      <trkpt lat="55.900601678152" lon="14.267753244629">
        <ele>9.6</ele>
        <time>2020-02-29T11:20:22Z</time>
      </trkpt>
      <trkpt lat="55.900547028164" lon="14.267418136267">
        <ele>10.2</ele>
        <time>2020-02-29T11:20:31Z</time>
      </trkpt>
      <trkpt lat="55.900552895494" lon="14.267088559959">
        <ele>8.8</ele>
        <time>2020-02-29T11:20:39Z</time>
      </trkpt>
      <trkpt lat="55.90062028597" lon="14.266737609806">
        <ele>9.8</ele>
        <time>2020-02-29T11:20:46Z</time>
      </trkpt>
      <trkpt lat="55.900652723923" lon="14.266627639278">
        <ele>10.2</ele>
        <time>2020-02-29T11:20:48Z</time>
      </trkpt>
      <trkpt lat="55.90068231203" lon="14.266578102249">
        <ele>10.4</ele>
        <time>2020-02-29T11:20:50Z</time>
      </trkpt>
      <trkpt lat="55.900719779123" lon="14.266536779482">
        <ele>10.4</ele>
        <time>2020-02-29T11:20:52Z</time>
      </trkpt>
      <trkpt lat="55.900763448822" lon="14.266518926035">
        <ele>10.8</ele>
        <time>2020-02-29T11:20:55Z</time>
      </trkpt>
      <trkpt lat="55.900816673887" lon="14.266512891067">
        <ele>12</ele>
        <time>2020-02-29T11:20:57Z</time>
      </trkpt>
      <trkpt lat="55.900877191205" lon="14.266517082017">
        <ele>13</ele>
        <time>2020-02-29T11:21:00Z</time>
      </trkpt>
      <trkpt lat="55.900981210584" lon="14.26651515418">
        <ele>13</ele>
        <time>2020-02-29T11:21:05Z</time>
      </trkpt>
      <trkpt lat="55.901012391252" lon="14.266418678511">
        <ele>13.2</ele>
        <time>2020-02-29T11:21:08Z</time>
      </trkpt>
      <trkpt lat="55.901052540553" lon="14.266351958587">
        <ele>13</ele>
        <time>2020-02-29T11:21:10Z</time>
      </trkpt>
      <trkpt lat="55.901157481941" lon="14.266221620042">
        <ele>12</ele>
        <time>2020-02-29T11:21:15Z</time>
      </trkpt>
      <trkpt lat="55.901200145812" lon="14.266156827955">
        <ele>10.8</ele>
        <time>2020-02-29T11:21:17Z</time>
      </trkpt>
      <trkpt lat="55.901244234606" lon="14.26604828235">
        <ele>9.8</ele>
        <time>2020-02-29T11:21:20Z</time>
      </trkpt>
      <trkpt lat="55.901357557894" lon="14.265879219427">
        <ele>8.8</ele>
        <time>2020-02-29T11:21:26Z</time>
      </trkpt>
      <trkpt lat="55.901413465167" lon="14.265802189766">
        <ele>9.6</ele>
        <time>2020-02-29T11:21:29Z</time>
      </trkpt>
      <trkpt lat="55.901437688858" lon="14.265763381569">
        <ele>10</ele>
        <time>2020-02-29T11:21:30Z</time>
      </trkpt>
      <trkpt lat="55.90149032719" lon="14.265655925611">
        <ele>10.4</ele>
        <time>2020-02-29T11:21:32Z</time>
      </trkpt>
      <trkpt lat="55.901556208924" lon="14.265482755557">
        <ele>10.6</ele>
        <time>2020-02-29T11:21:37Z</time>
      </trkpt>
      <trkpt lat="55.901606584143" lon="14.265374880504">
        <ele>11</ele>
        <time>2020-02-29T11:21:42Z</time>
      </trkpt>
      <trkpt lat="55.901634076775" lon="14.265327103674">
        <ele>11.2</ele>
        <time>2020-02-29T11:21:43Z</time>
      </trkpt>
      <trkpt lat="55.901633070947" lon="14.265215540585">
        <ele>11.2</ele>
        <time>2020-02-29T11:21:45Z</time>
      </trkpt>
      <trkpt lat="55.901611278007" lon="14.26483961237">
        <ele>11</ele>
        <time>2020-02-29T11:21:51Z</time>
      </trkpt>
      <trkpt lat="55.901574732923" lon="14.264566697706">
        <ele>9.4</ele>
        <time>2020-02-29T11:21:55Z</time>
      </trkpt>
      <trkpt lat="55.901514215605" lon="14.264316749448">
        <ele>11</ele>
        <time>2020-02-29T11:21:59Z</time>
      </trkpt>
      <trkpt lat="55.901437018306" lon="14.263987005502">
        <ele>12</ele>
        <time>2020-02-29T11:22:05Z</time>
      </trkpt>
      <trkpt lat="55.901384296155" lon="14.263761029478">
        <ele>10.6</ele>
        <time>2020-02-29T11:22:12Z</time>
      </trkpt>
      <trkpt lat="55.901377842092" lon="14.263689867147">
        <ele>10.2</ele>
        <time>2020-02-29T11:22:14Z</time>
      </trkpt>
      <trkpt lat="55.901290502694" lon="14.263387532014">
        <ele>10.8</ele>
        <time>2020-02-29T11:22:21Z</time>
      </trkpt>
      <trkpt lat="55.90115840395" lon="14.26304672396">
        <ele>11.8</ele>
        <time>2020-02-29T11:22:27Z</time>
      </trkpt>
      <trkpt lat="55.901023958274" lon="14.262766349405">
        <ele>10.8</ele>
        <time>2020-02-29T11:22:32Z</time>
      </trkpt>
      <trkpt lat="55.900864953631" lon="14.262591000057">
        <ele>10.6</ele>
        <time>2020-02-29T11:22:37Z</time>
      </trkpt>
      <trkpt lat="55.900687676446" lon="14.26241640508">
        <ele>10.4</ele>
        <time>2020-02-29T11:22:42Z</time>
      </trkpt>
      <trkpt lat="55.900502771732" lon="14.262244157035">
        <ele>11.2</ele>
        <time>2020-02-29T11:22:48Z</time>
      </trkpt>
      <trkpt lat="55.900326332737" lon="14.262124379684">
        <ele>11.8</ele>
        <time>2020-02-29T11:22:54Z</time>
      </trkpt>
      <trkpt lat="55.900277550079" lon="14.26211046573">
        <ele>11.8</ele>
        <time>2020-02-29T11:22:56Z</time>
      </trkpt>
      <trkpt lat="55.900245950316" lon="14.262163523157">
        <ele>11.6</ele>
        <time>2020-02-29T11:23:00Z</time>
      </trkpt>
      <trkpt lat="55.900227258679" lon="14.262246168691">
        <ele>11.8</ele>
        <time>2020-02-29T11:23:03Z</time>
      </trkpt>
      <trkpt lat="55.900179900944" lon="14.262281205033">
        <ele>12</ele>
        <time>2020-02-29T11:23:05Z</time>
      </trkpt>
      <trkpt lat="55.900109995898" lon="14.262430738129">
        <ele>12</ele>
        <time>2020-02-29T11:23:11Z</time>
      </trkpt>
      <trkpt lat="55.900102536007" lon="14.26249603313">
        <ele>12.2</ele>
        <time>2020-02-29T11:23:13Z</time>
      </trkpt>
      <trkpt lat="55.900100105256" lon="14.262636346136">
        <ele>13.6</ele>
        <time>2020-02-29T11:23:17Z</time>
      </trkpt>
      <trkpt lat="55.900097003953" lon="14.262669873736">
        <ele>13.6</ele>
        <time>2020-02-29T11:23:18Z</time>
      </trkpt>
      <trkpt lat="55.900059872136" lon="14.262741706619">
        <ele>14.2</ele>
        <time>2020-02-29T11:23:21Z</time>
      </trkpt>
      <trkpt lat="55.9000478022" lon="14.262735587832">
        <ele>14.6</ele>
        <time>2020-02-29T11:23:23Z</time>
      </trkpt>
      <trkpt lat="55.900053082797" lon="14.262693678332">
        <ele>14.6</ele>
        <time>2020-02-29T11:23:25Z</time>
      </trkpt>
      <trkpt lat="55.900077557945" lon="14.262586641469">
        <ele>14</ele>
        <time>2020-02-29T11:23:29Z</time>
      </trkpt>
      <trkpt lat="55.900058195756" lon="14.262545653978">
        <ele>13.8</ele>
        <time>2020-02-29T11:23:31Z</time>
      </trkpt>
      <trkpt lat="55.899984015941" lon="14.262396959072">
        <ele>13.4</ele>
        <time>2020-02-29T11:23:35Z</time>
      </trkpt>
      <trkpt lat="55.899961552449" lon="14.262216329127">
        <ele>12.6</ele>
        <time>2020-02-29T11:23:40Z</time>
      </trkpt>
      <trkpt lat="55.899968928521" lon="14.262154303067">
        <ele>12.6</ele>
        <time>2020-02-29T11:23:42Z</time>
      </trkpt>
      <trkpt lat="55.899941519708" lon="14.262052043887">
        <ele>12.4</ele>
        <time>2020-02-29T11:23:45Z</time>
      </trkpt>
      <trkpt lat="55.89993464655" lon="14.262039973951">
        <ele>12.2</ele>
        <time>2020-02-29T11:23:46Z</time>
      </trkpt>
      <trkpt lat="55.899852252473" lon="14.261950622897">
        <ele>12.2</ele>
        <time>2020-02-29T11:23:51Z</time>
      </trkpt>
      <trkpt lat="55.899749741836" lon="14.2619537242">
        <ele>12.4</ele>
        <time>2020-02-29T11:23:55Z</time>
      </trkpt>
      <trkpt lat="55.899557209593" lon="14.261974176036">
        <ele>13.4</ele>
        <time>2020-02-29T11:24:02Z</time>
      </trkpt>
      <trkpt lat="55.899360402581" lon="14.261922459713">
        <ele>12.4</ele>
        <time>2020-02-29T11:24:11Z</time>
      </trkpt>
      <trkpt lat="55.899320756194" lon="14.26190678556">
        <ele>12.2</ele>
        <time>2020-02-29T11:24:13Z</time>
      </trkpt>
      <trkpt lat="55.8991928484" lon="14.261826067863">
        <ele>12.2</ele>
        <time>2020-02-29T11:24:17Z</time>
      </trkpt>
      <trkpt lat="55.899094444894" lon="14.26180201181">
        <ele>12.4</ele>
        <time>2020-02-29T11:24:22Z</time>
      </trkpt>
      <trkpt lat="55.899034514309" lon="14.26184895045">
        <ele>12.8</ele>
        <time>2020-02-29T11:24:25Z</time>
      </trkpt>
      <trkpt lat="55.898963771073" lon="14.261854063409">
        <ele>13.2</ele>
        <time>2020-02-29T11:24:27Z</time>
      </trkpt>
      <trkpt lat="55.898907444705" lon="14.261894296529">
        <ele>12.2</ele>
        <time>2020-02-29T11:24:31Z</time>
      </trkpt>
      <trkpt lat="55.898891435276" lon="14.261944085015">
        <ele>11.8</ele>
        <time>2020-02-29T11:24:35Z</time>
      </trkpt>
      <trkpt lat="55.898902080289" lon="14.262061766891">
        <ele>12.2</ele>
        <time>2020-02-29T11:24:38Z</time>
      </trkpt>
      <trkpt lat="55.898910713646" lon="14.262142987502">
        <ele>13.4</ele>
        <time>2020-02-29T11:24:40Z</time>
      </trkpt>
      <trkpt lat="55.898904008126" lon="14.262238792619">
        <ele>14.6</ele>
        <time>2020-02-29T11:24:42Z</time>
      </trkpt>
      <trkpt lat="55.898868385051" lon="14.262565854357">
        <ele>14.6</ele>
        <time>2020-02-29T11:24:50Z</time>
      </trkpt>
      <trkpt lat="55.898831253234" lon="14.262897945235">
        <ele>15.2</ele>
        <time>2020-02-29T11:24:59Z</time>
      </trkpt>
      <trkpt lat="55.898773166667" lon="14.262951924671">
        <ele>14.4</ele>
        <time>2020-02-29T11:25:02Z</time>
      </trkpt>
      <trkpt lat="55.898744332931" lon="14.262963072598">
        <ele>14.2</ele>
        <time>2020-02-29T11:25:04Z</time>
      </trkpt>
      <trkpt lat="55.898555321086" lon="14.262960809485">
        <ele>13.6</ele>
        <time>2020-02-29T11:25:11Z</time>
      </trkpt>
      <trkpt lat="55.898519278916" lon="14.262972376507">
        <ele>13.4</ele>
        <time>2020-02-29T11:25:12Z</time>
      </trkpt>
      <trkpt lat="55.898393131321" lon="14.262995342913">
        <ele>12.2</ele>
        <time>2020-02-29T11:25:17Z</time>
      </trkpt>
      <trkpt lat="55.898228594624" lon="14.263002383709">
        <ele>11</ele>
        <time>2020-02-29T11:25:23Z</time>
      </trkpt>
      <trkpt lat="55.898053161457" lon="14.26305007672">
        <ele>10</ele>
        <time>2020-02-29T11:25:29Z</time>
      </trkpt>
      <trkpt lat="55.897851912038" lon="14.262937926898">
        <ele>9.4</ele>
        <time>2020-02-29T11:25:34Z</time>
      </trkpt>
      <trkpt lat="55.897747305926" lon="14.262781520644">
        <ele>11</ele>
        <time>2020-02-29T11:25:40Z</time>
      </trkpt>
      <trkpt lat="55.897721657312" lon="14.262737515669">
        <ele>12</ele>
        <time>2020-02-29T11:25:42Z</time>
      </trkpt>
      <trkpt lat="55.897706318435" lon="14.262727541208">
        <ele>12.6</ele>
        <time>2020-02-29T11:25:43Z</time>
      </trkpt>
      <trkpt lat="55.897679747812" lon="14.262712453788">
        <ele>13.8</ele>
        <time>2020-02-29T11:25:45Z</time>
      </trkpt>
      <trkpt lat="55.897650914076" lon="14.262708765752">
        <ele>15</ele>
        <time>2020-02-29T11:25:47Z</time>
      </trkpt>
      <trkpt lat="55.897628199127" lon="14.262689571201">
        <ele>15.6</ele>
        <time>2020-02-29T11:25:49Z</time>
      </trkpt>
      <trkpt lat="55.897542033195" lon="14.26268127312">
        <ele>15.2</ele>
        <time>2020-02-29T11:25:53Z</time>
      </trkpt>
      <trkpt lat="55.897433152314" lon="14.262636681412">
        <ele>13.6</ele>
        <time>2020-02-29T11:25:56Z</time>
      </trkpt>
      <trkpt lat="55.897372132082" lon="14.262587898754">
        <ele>12.4</ele>
        <time>2020-02-29T11:25:58Z</time>
      </trkpt>
      <trkpt lat="55.897324187614" lon="14.262557723914">
        <ele>10.6</ele>
        <time>2020-02-29T11:26:00Z</time>
      </trkpt>
      <trkpt lat="55.897275572594" lon="14.262531320929">
        <ele>9.6</ele>
        <time>2020-02-29T11:26:03Z</time>
      </trkpt>
      <trkpt lat="55.897272387472" lon="14.262525453599">
        <ele>9.4</ele>
        <time>2020-02-29T11:26:04Z</time>
      </trkpt>
      <trkpt lat="55.897197620924" lon="14.262472312353">
        <ele>8.6</ele>
        <time>2020-02-29T11:26:11Z</time>
      </trkpt>
      <trkpt lat="55.897187562644" lon="14.26246585829">
        <ele>8.6</ele>
        <time>2020-02-29T11:26:12Z</time>
      </trkpt>
      <trkpt lat="55.897117573779" lon="14.262528219626">
        <ele>8.4</ele>
        <time>2020-02-29T11:26:16Z</time>
      </trkpt>
      <trkpt lat="55.89707055132" lon="14.262571051135">
        <ele>9.6</ele>
        <time>2020-02-29T11:26:19Z</time>
      </trkpt>
      <trkpt lat="55.897011961839" lon="14.262880259426">
        <ele>10</ele>
        <time>2020-02-29T11:26:27Z</time>
      </trkpt>
      <trkpt lat="55.897008357622" lon="14.262945638246">
        <ele>10.4</ele>
        <time>2020-02-29T11:26:29Z</time>
      </trkpt>
      <trkpt lat="55.897002825568" lon="14.262996013465">
        <ele>10.6</ele>
        <time>2020-02-29T11:26:30Z</time>
      </trkpt>
      <trkpt lat="55.897003579939" lon="14.263024176649">
        <ele>11</ele>
        <time>2020-02-29T11:26:31Z</time>
      </trkpt>
      <trkpt lat="55.89700181974" lon="14.263055273498">
        <ele>11.2</ele>
        <time>2020-02-29T11:26:33Z</time>
      </trkpt>
      <trkpt lat="55.89696661576" lon="14.263278399676">
        <ele>11.8</ele>
        <time>2020-02-29T11:26:45Z</time>
      </trkpt>
      <trkpt lat="55.896904924976" lon="14.263183600387">
        <ele>11.8</ele>
        <time>2020-02-29T11:27:18Z</time>
      </trkpt>
      <trkpt lat="55.896948762313" lon="14.262934825595">
        <ele>10.6</ele>
        <time>2020-02-29T11:27:22Z</time>
      </trkpt>
      <trkpt lat="55.896964855561" lon="14.262723098801">
        <ele>9.4</ele>
        <time>2020-02-29T11:27:26Z</time>
      </trkpt>
      <trkpt lat="55.896970555253" lon="14.262657887619">
        <ele>10</ele>
        <time>2020-02-29T11:27:29Z</time>
      </trkpt>
      <trkpt lat="55.896980613533" lon="14.262627545141">
        <ele>10.6</ele>
        <time>2020-02-29T11:27:31Z</time>
      </trkpt>
      <trkpt lat="55.896979942981" lon="14.262601142156">
        <ele>10.8</ele>
        <time>2020-02-29T11:27:32Z</time>
      </trkpt>
      <trkpt lat="55.896976422583" lon="14.262524615409">
        <ele>10.8</ele>
        <time>2020-02-29T11:27:34Z</time>
      </trkpt>
      <trkpt lat="55.896978182782" lon="14.262431743957">
        <ele>10.8</ele>
        <time>2020-02-29T11:27:36Z</time>
      </trkpt>
      <trkpt lat="55.896912803962" lon="14.262262932491">
        <ele>11.2</ele>
        <time>2020-02-29T11:27:40Z</time>
      </trkpt>
      <trkpt lat="55.896907188089" lon="14.26224373794">
        <ele>11.8</ele>
        <time>2020-02-29T11:27:41Z</time>
      </trkpt>
      <trkpt lat="55.896891430117" lon="14.26220434301">
        <ele>13</ele>
        <time>2020-02-29T11:27:44Z</time>
      </trkpt>
      <trkpt lat="55.896837115405" lon="14.262137371629">
        <ele>14</ele>
        <time>2020-02-29T11:27:50Z</time>
      </trkpt>
      <trkpt lat="55.896751536206" lon="14.262037124105">
        <ele>14</ele>
        <time>2020-02-29T11:27:53Z</time>
      </trkpt>
      <trkpt lat="55.896606780793" lon="14.261882394231">
        <ele>12.2</ele>
        <time>2020-02-29T11:27:59Z</time>
      </trkpt>
      <trkpt lat="55.896585993681" lon="14.261845849147">
        <ele>11.6</ele>
        <time>2020-02-29T11:28:00Z</time>
      </trkpt>
      <trkpt lat="55.896559339239" lon="14.261821541637">
        <ele>11.2</ele>
        <time>2020-02-29T11:28:01Z</time>
      </trkpt>
      <trkpt lat="55.896505527441" lon="14.261760772862">
        <ele>10.4</ele>
        <time>2020-02-29T11:28:03Z</time>
      </trkpt>
      <trkpt lat="55.896342667124" lon="14.261597158174">
        <ele>9.4</ele>
        <time>2020-02-29T11:28:10Z</time>
      </trkpt>
      <trkpt lat="55.896224985248" lon="14.261468831285">
        <ele>10.8</ele>
        <time>2020-02-29T11:28:17Z</time>
      </trkpt>
      <trkpt lat="55.896220375203" lon="14.261438404988">
        <ele>11.6</ele>
        <time>2020-02-29T11:28:18Z</time>
      </trkpt>
      <trkpt lat="55.896205706878" lon="14.261374702548">
        <ele>12.8</ele>
        <time>2020-02-29T11:28:20Z</time>
      </trkpt>
      <trkpt lat="55.896145021922" lon="14.261154510035">
        <ele>13.8</ele>
        <time>2020-02-29T11:28:26Z</time>
      </trkpt>
      <trkpt lat="55.896116523462" lon="14.260981088524">
        <ele>14</ele>
        <time>2020-02-29T11:28:31Z</time>
      </trkpt>
      <trkpt lat="55.896127252294" lon="14.26066374979">
        <ele>15.2</ele>
        <time>2020-02-29T11:28:51Z</time>
      </trkpt>
      <trkpt lat="55.896142004438" lon="14.260598538608">
        <ele>16.6</ele>
        <time>2020-02-29T11:28:53Z</time>
      </trkpt>
      <trkpt lat="55.896146195388" lon="14.26056987251">
        <ele>16.8</ele>
        <time>2020-02-29T11:28:54Z</time>
      </trkpt>
      <trkpt lat="55.896145273379" lon="14.260503068767">
        <ele>16.8</ele>
        <time>2020-02-29T11:28:56Z</time>
      </trkpt>
      <trkpt lat="55.896149045234" lon="14.260440288336">
        <ele>16.6</ele>
        <time>2020-02-29T11:28:58Z</time>
      </trkpt>
      <trkpt lat="55.89613094033" lon="14.260357139888">
        <ele>16.4</ele>
        <time>2020-02-29T11:29:00Z</time>
      </trkpt>
      <trkpt lat="55.896042511285" lon="14.260148011483">
        <ele>15.4</ele>
        <time>2020-02-29T11:29:07Z</time>
      </trkpt>
      <trkpt lat="55.896016695033" lon="14.260113729512">
        <ele>14.4</ele>
        <time>2020-02-29T11:29:10Z</time>
      </trkpt>
      <trkpt lat="55.89590462903" lon="14.260077938799">
        <ele>14.4</ele>
        <time>2020-02-29T11:29:13Z</time>
      </trkpt>
      <trkpt lat="55.895839501667" lon="14.260078609351">
        <ele>14.6</ele>
        <time>2020-02-29T11:29:15Z</time>
      </trkpt>
      <trkpt lat="55.895696087358" lon="14.259889429868">
        <ele>13.6</ele>
        <time>2020-02-29T11:29:20Z</time>
      </trkpt>
      <trkpt lat="55.895672366581" lon="14.259865457634">
        <ele>13.4</ele>
        <time>2020-02-29T11:29:21Z</time>
      </trkpt>
      <trkpt lat="55.895627774873" lon="14.259839725201">
        <ele>13</ele>
        <time>2020-02-29T11:29:23Z</time>
      </trkpt>
      <trkpt lat="55.895582428794" lon="14.259779124064">
        <ele>12.4</ele>
        <time>2020-02-29T11:29:25Z</time>
      </trkpt>
      <trkpt lat="55.895557115456" lon="14.259761773531">
        <ele>11.8</ele>
        <time>2020-02-29T11:29:26Z</time>
      </trkpt>
      <trkpt lat="55.895464160185" lon="14.259711817407">
        <ele>11</ele>
        <time>2020-02-29T11:29:29Z</time>
      </trkpt>
      <trkpt lat="55.89536399648" lon="14.259615677014">
        <ele>12</ele>
        <time>2020-02-29T11:29:36Z</time>
      </trkpt>
      <trkpt lat="55.89537321657" lon="14.25957075003">
        <ele>11.8</ele>
        <time>2020-02-29T11:29:41Z</time>
      </trkpt>
      <trkpt lat="55.895362906833" lon="14.259465557185">
        <ele>11.8</ele>
        <time>2020-02-29T11:29:43Z</time>
      </trkpt>
      <trkpt lat="55.89537405476" lon="14.259104967847">
        <ele>12.6</ele>
        <time>2020-02-29T11:29:50Z</time>
      </trkpt>
      <trkpt lat="55.895373468027" lon="14.258780588317">
        <ele>11.4</ele>
        <time>2020-02-29T11:29:56Z</time>
      </trkpt>
      <trkpt lat="55.895356620408" lon="14.258504991445">
        <ele>11.8</ele>
        <time>2020-02-29T11:30:02Z</time>
      </trkpt>
      <trkpt lat="55.895406660351" lon="14.258342466404">
        <ele>12</ele>
        <time>2020-02-29T11:30:06Z</time>
      </trkpt>
      <trkpt lat="55.895416383355" lon="14.258265939657">
        <ele>11.8</ele>
        <time>2020-02-29T11:30:09Z</time>
      </trkpt>
      <trkpt lat="55.895414958432" lon="14.258209026556">
        <ele>11.8</ele>
        <time>2020-02-29T11:30:11Z</time>
      </trkpt>
      <trkpt lat="55.89536148191" lon="14.257865201018">
        <ele>11.8</ele>
        <time>2020-02-29T11:30:18Z</time>
      </trkpt>
      <trkpt lat="55.895265341517" lon="14.257696808647">
        <ele>13</ele>
        <time>2020-02-29T11:30:23Z</time>
      </trkpt>
      <trkpt lat="55.895226281863" lon="14.257603015186">
        <ele>13.8</ele>
        <time>2020-02-29T11:30:26Z</time>
      </trkpt>
      <trkpt lat="55.895195939385" lon="14.257587927766">
        <ele>14</ele>
        <time>2020-02-29T11:30:27Z</time>
      </trkpt>
      <trkpt lat="55.895032743792" lon="14.257601506444">
        <ele>14.2</ele>
        <time>2020-02-29T11:30:34Z</time>
      </trkpt>
      <trkpt lat="55.895019668028" lon="14.257610642715">
        <ele>13.4</ele>
        <time>2020-02-29T11:30:37Z</time>
      </trkpt>
      <trkpt lat="55.895053782361" lon="14.257521291661">
        <ele>13.4</ele>
        <time>2020-02-29T11:30:41Z</time>
      </trkpt>
      <trkpt lat="55.895221336542" lon="14.257363711941">
        <ele>13.8</ele>
        <time>2020-02-29T11:30:49Z</time>
      </trkpt>
      <trkpt lat="55.895356285132" lon="14.257154080622">
        <ele>14.6</ele>
        <time>2020-02-29T11:30:59Z</time>
      </trkpt>
      <trkpt lat="55.895371959285" lon="14.257146117817">
        <ele>15.2</ele>
        <time>2020-02-29T11:31:01Z</time>
      </trkpt>
      <trkpt lat="55.895370618181" lon="14.257089875268">
        <ele>15.6</ele>
        <time>2020-02-29T11:31:03Z</time>
      </trkpt>
      <trkpt lat="55.895362906833" lon="14.257029693226">
        <ele>15.8</ele>
        <time>2020-02-29T11:31:08Z</time>
      </trkpt>
      <trkpt lat="55.89534220354" lon="14.257161708151">
        <ele>14</ele>
        <time>2020-02-29T11:31:12Z</time>
      </trkpt>
      <trkpt lat="55.895329127776" lon="14.257276959276">
        <ele>13.2</ele>
        <time>2020-02-29T11:31:15Z</time>
      </trkpt>
      <trkpt lat="55.895346562128" lon="14.25737888318">
        <ele>14</ele>
        <time>2020-02-29T11:31:17Z</time>
      </trkpt>
      <trkpt lat="55.89545033005" lon="14.25756328498">
        <ele>13.8</ele>
        <time>2020-02-29T11:31:22Z</time>
      </trkpt>
      <trkpt lat="55.895516630879" lon="14.25786000424">
        <ele>12.8</ele>
        <time>2020-02-29T11:31:28Z</time>
      </trkpt>
      <trkpt lat="55.895696254996" lon="14.258063600591">
        <ele>12.6</ele>
        <time>2020-02-29T11:31:35Z</time>
      </trkpt>
      <trkpt lat="55.895810416474" lon="14.258205254701">
        <ele>14.2</ele>
        <time>2020-02-29T11:31:39Z</time>
      </trkpt>
      <trkpt lat="55.895996578473" lon="14.25834615444">
        <ele>14.6</ele>
        <time>2020-02-29T11:31:45Z</time>
      </trkpt>
      <trkpt lat="55.89606891427" lon="14.258421675359">
        <ele>12.2</ele>
        <time>2020-02-29T11:31:48Z</time>
      </trkpt>
      <trkpt lat="55.896162037179" lon="14.258553690284">
        <ele>11.2</ele>
        <time>2020-02-29T11:31:52Z</time>
      </trkpt>
      <trkpt lat="55.896325232772" lon="14.258720490094">
        <ele>11.4</ele>
        <time>2020-02-29T11:32:00Z</time>
      </trkpt>
      <trkpt lat="55.896431599083" lon="14.258850074268">
        <ele>12.2</ele>
        <time>2020-02-29T11:32:04Z</time>
      </trkpt>
      <trkpt lat="55.896624969516" lon="14.258939425322">
        <ele>12.4</ele>
        <time>2020-02-29T11:32:10Z</time>
      </trkpt>
      <trkpt lat="55.896735610596" lon="14.259022238494">
        <ele>11.2</ele>
        <time>2020-02-29T11:32:15Z</time>
      </trkpt>
      <trkpt lat="55.896918671292" lon="14.259106811865">
        <ele>12.4</ele>
        <time>2020-02-29T11:32:23Z</time>
      </trkpt>
      <trkpt lat="55.897057307918" lon="14.259221727714">
        <ele>13.4</ele>
        <time>2020-02-29T11:32:28Z</time>
      </trkpt>
      <trkpt lat="55.897170379749" lon="14.259294063511">
        <ele>13.8</ele>
        <time>2020-02-29T11:32:32Z</time>
      </trkpt>
      <trkpt lat="55.897274063852" lon="14.259219464601">
        <ele>14.2</ele>
        <time>2020-02-29T11:32:39Z</time>
      </trkpt>
      <trkpt lat="55.897295689154" lon="14.259208987226">
        <ele>14</ele>
        <time>2020-02-29T11:32:42Z</time>
      </trkpt>
      <trkpt lat="55.897314129334" lon="14.259184260621">
        <ele>13.8</ele>
        <time>2020-02-29T11:32:44Z</time>
      </trkpt>
      <trkpt lat="55.89735805049" lon="14.259208232855">
        <ele>13.8</ele>
        <time>2020-02-29T11:32:47Z</time>
      </trkpt>
      <trkpt lat="55.897539267168" lon="14.259307809827">
        <ele>13.6</ele>
        <time>2020-02-29T11:32:54Z</time>
      </trkpt>
      <trkpt lat="55.897717466362" lon="14.259459103122">
        <ele>13.2</ele>
        <time>2020-02-29T11:33:01Z</time>
      </trkpt>
      <trkpt lat="55.897884601448" lon="14.259578964292">
        <ele>13</ele>
        <time>2020-02-29T11:33:07Z</time>
      </trkpt>
      <trkpt lat="55.898061710995" lon="14.259699998928">
        <ele>12.8</ele>
        <time>2020-02-29T11:33:13Z</time>
      </trkpt>
      <trkpt lat="55.898229432814" lon="14.259877946665">
        <ele>13.2</ele>
        <time>2020-02-29T11:33:20Z</time>
      </trkpt>
      <trkpt lat="55.898280394766" lon="14.259911474265">
        <ele>13</ele>
        <time>2020-02-29T11:33:23Z</time>
      </trkpt>
      <trkpt lat="55.898305540466" lon="14.259960759837">
        <ele>12.6</ele>
        <time>2020-02-29T11:33:26Z</time>
      </trkpt>
      <trkpt lat="55.898408721655" lon="14.260232501035">
        <ele>12.4</ele>
        <time>2020-02-29T11:33:32Z</time>
      </trkpt>
      <trkpt lat="55.898443590359" lon="14.260316320035">
        <ele>12.6</ele>
        <time>2020-02-29T11:33:34Z</time>
      </trkpt>
      <trkpt lat="55.898481392728" lon="14.260534081797">
        <ele>12.4</ele>
        <time>2020-02-29T11:33:43Z</time>
      </trkpt>
      <trkpt lat="55.898455325019" lon="14.260666934912">
        <ele>12.4</ele>
        <time>2020-02-29T11:33:45Z</time>
      </trkpt>
      <trkpt lat="55.898523888961" lon="14.260777156897">
        <ele>12.6</ele>
        <time>2020-02-29T11:33:49Z</time>
      </trkpt>
      <trkpt lat="55.898675433713" lon="14.261029535906">
        <ele>14</ele>
        <time>2020-02-29T11:33:56Z</time>
      </trkpt>
      <trkpt lat="55.898796216892" lon="14.261329859383">
        <ele>13</ele>
        <time>2020-02-29T11:34:02Z</time>
      </trkpt>
      <trkpt lat="55.898866708671" lon="14.261657591673">
        <ele>13.2</ele>
        <time>2020-02-29T11:34:08Z</time>
      </trkpt>
      <trkpt lat="55.898885316489" lon="14.261977277339">
        <ele>11.8</ele>
        <time>2020-02-29T11:34:16Z</time>
      </trkpt>
      <trkpt lat="55.898894033665" lon="14.262052211525">
        <ele>13.6</ele>
        <time>2020-02-29T11:34:18Z</time>
      </trkpt>
      <trkpt lat="55.898896715873" lon="14.262104682219">
        <ele>15</ele>
        <time>2020-02-29T11:34:19Z</time>
      </trkpt>
      <trkpt lat="55.898881209358" lon="14.26233007151">
        <ele>15.6</ele>
        <time>2020-02-29T11:34:23Z</time>
      </trkpt>
      <trkpt lat="55.898841395333" lon="14.262661575655">
        <ele>15.8</ele>
        <time>2020-02-29T11:34:29Z</time>
      </trkpt>
      <trkpt lat="55.898827565198" lon="14.26298553609">
        <ele>14</ele>
        <time>2020-02-29T11:34:35Z</time>
      </trkpt>
      <trkpt lat="55.89883410308" lon="14.26326632974">
        <ele>12.8</ele>
        <time>2020-02-29T11:34:39Z</time>
      </trkpt>
      <trkpt lat="55.898866121938" lon="14.263636725901">
        <ele>12</ele>
        <time>2020-02-29T11:34:44Z</time>
      </trkpt>
      <trkpt lat="55.898869474698" lon="14.263685340921">
        <ele>11.6</ele>
        <time>2020-02-29T11:34:45Z</time>
      </trkpt>
      <trkpt lat="55.898858494409" lon="14.264010391003">
        <ele>11.8</ele>
        <time>2020-02-29T11:34:52Z</time>
      </trkpt>
      <trkpt lat="55.898819099479" lon="14.264141735376">
        <ele>10.8</ele>
        <time>2020-02-29T11:34:55Z</time>
      </trkpt>
      <trkpt lat="55.89879303177" lon="14.264185656532">
        <ele>10.4</ele>
        <time>2020-02-29T11:34:56Z</time>
      </trkpt>
      <trkpt lat="55.898720025421" lon="14.264360000052">
        <ele>9.8</ele>
        <time>2020-02-29T11:34:59Z</time>
      </trkpt>
      <trkpt lat="55.898670823668" lon="14.264680859184">
        <ele>10.6</ele>
        <time>2020-02-29T11:35:05Z</time>
      </trkpt>
      <trkpt lat="55.898659005189" lon="14.264710782567">
        <ele>10.8</ele>
        <time>2020-02-29T11:35:06Z</time>
      </trkpt>
      <trkpt lat="55.898640145914" lon="14.264768282401">
        <ele>11.4</ele>
        <time>2020-02-29T11:35:08Z</time>
      </trkpt>
      <trkpt lat="55.898639726819" lon="14.264828296805">
        <ele>12.6</ele>
        <time>2020-02-29T11:35:10Z</time>
      </trkpt>
      <trkpt lat="55.898637798982" lon="14.264852520496">
        <ele>13.2</ele>
        <time>2020-02-29T11:35:11Z</time>
      </trkpt>
      <trkpt lat="55.898591530894" lon="14.264887305381">
        <ele>13.4</ele>
        <time>2020-02-29T11:35:15Z</time>
      </trkpt>
      <trkpt lat="55.898558254751" lon="14.26488152187">
        <ele>12.2</ele>
        <time>2020-02-29T11:35:20Z</time>
      </trkpt>
      <trkpt lat="55.898497653614" lon="14.264829637909">
        <ele>11.6</ele>
        <time>2020-02-29T11:35:23Z</time>
      </trkpt>
      <trkpt lat="55.898348958708" lon="14.264724109788">
        <ele>12.8</ele>
        <time>2020-02-29T11:35:28Z</time>
      </trkpt>
      <trkpt lat="55.898326746673" lon="14.264701143382">
        <ele>13.2</ele>
        <time>2020-02-29T11:35:29Z</time>
      </trkpt>
      <trkpt lat="55.898280227128" lon="14.264933154374">
        <ele>12.4</ele>
        <time>2020-02-29T11:35:52Z</time>
      </trkpt>
      <trkpt lat="55.898203029829" lon="14.265095595596">
        <ele>11.8</ele>
        <time>2020-02-29T11:35:57Z</time>
      </trkpt>
      <trkpt lat="55.898075708768" lon="14.26536934845">
        <ele>12</ele>
        <time>2020-02-29T11:36:04Z</time>
      </trkpt>
      <trkpt lat="55.898033799268" lon="14.265507817438">
        <ele>11.6</ele>
        <time>2020-02-29T11:36:07Z</time>
      </trkpt>
      <trkpt lat="55.897877895928" lon="14.265773775125">
        <ele>11.2</ele>
        <time>2020-02-29T11:36:15Z</time>
      </trkpt>
      <trkpt lat="55.897768344495" lon="14.265969576309">
        <ele>10.4</ele>
        <time>2020-02-29T11:36:19Z</time>
      </trkpt>
      <trkpt lat="55.897716460534" lon="14.266064459417">
        <ele>9.8</ele>
        <time>2020-02-29T11:36:22Z</time>
      </trkpt>
      <trkpt lat="55.897612608793" lon="14.266310384363">
        <ele>9.4</ele>
        <time>2020-02-29T11:36:28Z</time>
      </trkpt>
      <trkpt lat="55.897545218317" lon="14.266415325751">
        <ele>8.4</ele>
        <time>2020-02-29T11:36:31Z</time>
      </trkpt>
      <trkpt lat="55.897523425377" lon="14.266428652972">
        <ele>8.2</ele>
        <time>2020-02-29T11:36:32Z</time>
      </trkpt>
      <trkpt lat="55.897491657976" lon="14.266454217767">
        <ele>8.4</ele>
        <time>2020-02-29T11:36:34Z</time>
      </trkpt>
      <trkpt lat="55.897451843951" lon="14.266509119212">
        <ele>9</ele>
        <time>2020-02-29T11:36:37Z</time>
      </trkpt>
      <trkpt lat="55.897428290812" lon="14.266580616819">
        <ele>8.8</ele>
        <time>2020-02-29T11:36:39Z</time>
      </trkpt>
      <trkpt lat="55.897348662762" lon="14.266705507129">
        <ele>8.4</ele>
        <time>2020-02-29T11:36:48Z</time>
      </trkpt>
      <trkpt lat="55.897205667548" lon="14.266821177349">
        <ele>8</ele>
        <time>2020-02-29T11:36:56Z</time>
      </trkpt>
      <trkpt lat="55.897090835518" lon="14.267046231364">
        <ele>9.4</ele>
        <time>2020-02-29T11:37:04Z</time>
      </trkpt>
      <trkpt lat="55.897044902706" lon="14.267116723143">
        <ele>10.8</ele>
        <time>2020-02-29T11:37:07Z</time>
      </trkpt>
      <trkpt lat="55.897007519432" lon="14.26716978057">
        <ele>11.8</ele>
        <time>2020-02-29T11:37:09Z</time>
      </trkpt>
      <trkpt lat="55.89682328527" lon="14.267305651169">
        <ele>11</ele>
        <time>2020-02-29T11:37:17Z</time>
      </trkpt>
      <trkpt lat="55.896798893941" lon="14.267328617575">
        <ele>10.2</ele>
        <time>2020-02-29T11:37:18Z</time>
      </trkpt>
      <trkpt lat="55.896766958902" lon="14.26737429893">
        <ele>9.4</ele>
        <time>2020-02-29T11:37:20Z</time>
      </trkpt>
      <trkpt lat="55.89661206139" lon="14.26745476517">
        <ele>9.2</ele>
        <time>2020-02-29T11:37:26Z</time>
      </trkpt>
      <trkpt lat="55.896516172454" lon="14.267522574741">
        <ele>8.8</ele>
        <time>2020-02-29T11:37:30Z</time>
      </trkpt>
      <trkpt lat="55.896497396998" lon="14.267582840602">
        <ele>8.8</ele>
        <time>2020-02-29T11:37:32Z</time>
      </trkpt>
      <trkpt lat="55.896493625143" lon="14.267661462824">
        <ele>8.8</ele>
        <time>2020-02-29T11:37:34Z</time>
      </trkpt>
      <trkpt lat="55.896500414482" lon="14.267762548538">
        <ele>9.6</ele>
        <time>2020-02-29T11:37:40Z</time>
      </trkpt>
      <trkpt lat="55.896511562409" lon="14.267895150196">
        <ele>9.4</ele>
        <time>2020-02-29T11:37:43Z</time>
      </trkpt>
      <trkpt lat="55.896518351748" lon="14.267942256474">
        <ele>9</ele>
        <time>2020-02-29T11:37:45Z</time>
      </trkpt>
      <trkpt lat="55.896523548526" lon="14.268004450172">
        <ele>8.8</ele>
        <time>2020-02-29T11:37:48Z</time>
      </trkpt>
      <trkpt lat="55.896523045612" lon="14.268177368769">
        <ele>8</ele>
        <time>2020-02-29T11:37:52Z</time>
      </trkpt>
      <trkpt lat="55.896586748052" lon="14.268525469076">
        <ele>7.6</ele>
        <time>2020-02-29T11:38:00Z</time>
      </trkpt>
      <trkpt lat="55.896651288682" lon="14.268870970994">
        <ele>8</ele>
        <time>2020-02-29T11:38:06Z</time>
      </trkpt>
      <trkpt lat="55.896695628933" lon="14.269108094945">
        <ele>9.2</ele>
        <time>2020-02-29T11:38:11Z</time>
      </trkpt>
      <trkpt lat="55.896810963877" lon="14.269398108685">
        <ele>8.4</ele>
        <time>2020-02-29T11:38:18Z</time>
      </trkpt>
      <trkpt lat="55.896909702659" lon="14.269708993356">
        <ele>9</ele>
        <time>2020-02-29T11:38:24Z</time>
      </trkpt>
      <trkpt lat="55.897028055087" lon="14.269985931332">
        <ele>9</ele>
        <time>2020-02-29T11:38:29Z</time>
      </trkpt>
      <trkpt lat="55.897049764208" lon="14.270044269356">
        <ele>9.2</ele>
        <time>2020-02-29T11:38:30Z</time>
      </trkpt>
      <trkpt lat="55.897092595717" lon="14.270117275705">
        <ele>9.6</ele>
        <time>2020-02-29T11:38:34Z</time>
      </trkpt>
      <trkpt lat="55.897173229595" lon="14.270234706124">
        <ele>9.2</ele>
        <time>2020-02-29T11:38:38Z</time>
      </trkpt>
      <trkpt lat="55.89724238027" lon="14.270332774354">
        <ele>8</ele>
        <time>2020-02-29T11:38:43Z</time>
      </trkpt>
      <trkpt lat="55.897383950561" lon="14.270595966014">
        <ele>8.6</ele>
        <time>2020-02-29T11:38:51Z</time>
      </trkpt>
      <trkpt lat="55.897513618554" lon="14.270819846563">
        <ele>9.4</ele>
        <time>2020-02-29T11:38:57Z</time>
      </trkpt>
      <trkpt lat="55.897574471148" lon="14.270914142938">
        <ele>10.8</ele>
        <time>2020-02-29T11:39:00Z</time>
      </trkpt>
      <trkpt lat="55.897749904315" lon="14.271125953551">
        <ele>10.4</ele>
        <time>2020-02-29T11:39:07Z</time>
      </trkpt>
      <trkpt lat="55.897780665888" lon="14.271162498635">
        <ele>9.6</ele>
        <time>2020-02-29T11:39:09Z</time>
      </trkpt>
      <trkpt lat="55.897860629214" lon="14.271279761416">
        <ele>8.2</ele>
        <time>2020-02-29T11:39:12Z</time>
      </trkpt>
      <trkpt lat="55.898001948048" lon="14.271524261439">
        <ele>8.4</ele>
        <time>2020-02-29T11:39:19Z</time>
      </trkpt>
      <trkpt lat="55.898102530848" lon="14.2717940748">
        <ele>8.4</ele>
        <time>2020-02-29T11:39:24Z</time>
      </trkpt>
      <trkpt lat="55.898210992634" lon="14.272056512089">
        <ele>9</ele>
        <time>2020-02-29T11:39:29Z</time>
      </trkpt>
      <trkpt lat="55.898329345062" lon="14.272321799224">
        <ele>8.8</ele>
        <time>2020-02-29T11:39:35Z</time>
      </trkpt>
      <trkpt lat="55.898341079722" lon="14.272373683185">
        <ele>9</ele>
        <time>2020-02-29T11:39:36Z</time>
      </trkpt>
      <trkpt lat="55.898391706398" lon="14.27247803784">
        <ele>9.2</ele>
        <time>2020-02-29T11:39:38Z</time>
      </trkpt>
      <trkpt lat="55.898517686355" lon="14.272715664705">
        <ele>8.4</ele>
        <time>2020-02-29T11:39:44Z</time>
      </trkpt>
      <trkpt lat="55.898537886734" lon="14.27275296416">
        <ele>8</ele>
        <time>2020-02-29T11:39:45Z</time>
      </trkpt>
      <trkpt lat="55.898669734021" lon="14.273002828599">
        <ele>8.8</ele>
        <time>2020-02-29T11:39:51Z</time>
      </trkpt>
      <trkpt lat="55.898693454798" lon="14.273053539094">
        <ele>9.2</ele>
        <time>2020-02-29T11:39:52Z</time>
      </trkpt>
      <trkpt lat="55.898799150557" lon="14.273256297255">
        <ele>8.2</ele>
        <time>2020-02-29T11:39:57Z</time>
      </trkpt>
      <trkpt lat="55.898956562639" lon="14.273439022675">
        <ele>8.2</ele>
        <time>2020-02-29T11:40:04Z</time>
      </trkpt>
      <trkpt lat="55.898991934257" lon="14.273496773966">
        <ele>8.6</ele>
        <time>2020-02-29T11:40:06Z</time>
      </trkpt>
      <trkpt lat="55.899084973347" lon="14.273537342362">
        <ele>8.6</ele>
        <time>2020-02-29T11:40:10Z</time>
      </trkpt>
      <trkpt lat="55.899134426557" lon="14.273554357619">
        <ele>9</ele>
        <time>2020-02-29T11:40:12Z</time>
      </trkpt>
      <trkpt lat="55.899159069343" lon="14.273549412298">
        <ele>9.2</ele>
        <time>2020-02-29T11:40:13Z</time>
      </trkpt>
      <trkpt lat="55.899220927765" lon="14.273531810308">
        <ele>10.2</ele>
        <time>2020-02-29T11:40:16Z</time>
      </trkpt>
      <trkpt lat="55.899376160553" lon="14.273445225281">
        <ele>11.2</ele>
        <time>2020-02-29T11:40:22Z</time>
      </trkpt>
      <trkpt lat="55.899474731697" lon="14.273256381074">
        <ele>11.8</ele>
        <time>2020-02-29T11:40:27Z</time>
      </trkpt>
      <trkpt lat="55.899506415279" lon="14.273245903699">
        <ele>10.8</ele>
        <time>2020-02-29T11:40:31Z</time>
      </trkpt>
      <trkpt lat="55.899511612057" lon="14.273236767428">
        <ele>10.2</ele>
        <time>2020-02-29T11:40:32Z</time>
      </trkpt>
      <trkpt lat="55.899542541268" lon="14.27319636667">
        <ele>9.2</ele>
        <time>2020-02-29T11:40:35Z</time>
      </trkpt>
      <trkpt lat="55.899665671379" lon="14.272955219407">
        <ele>10.2</ele>
        <time>2020-02-29T11:40:43Z</time>
      </trkpt>
      <trkpt lat="55.899713112933" lon="14.272880788135">
        <ele>10.4</ele>
        <time>2020-02-29T11:40:46Z</time>
      </trkpt>
      <trkpt lat="55.899732978036" lon="14.272873076787">
        <ele>10</ele>
        <time>2020-02-29T11:40:48Z</time>
      </trkpt>
      <trkpt lat="55.899742030488" lon="14.272855810073">
        <ele>9.2</ele>
        <time>2020-02-29T11:40:50Z</time>
      </trkpt>
      <trkpt lat="55.899939424233" lon="14.27274877321">
        <ele>9</ele>
        <time>2020-02-29T11:41:13Z</time>
      </trkpt>
      <trkpt lat="55.899997091705" lon="14.272773248358">
        <ele>9.2</ele>
        <time>2020-02-29T11:41:17Z</time>
      </trkpt>
      <trkpt lat="55.900176715822" lon="14.272890846415">
        <ele>9.2</ele>
        <time>2020-02-29T11:41:26Z</time>
      </trkpt>
      <trkpt lat="55.900245866497" lon="14.272920434522">
        <ele>8.8</ele>
        <time>2020-02-29T11:41:29Z</time>
      </trkpt>
      <trkpt lat="55.900343934727" lon="14.272877351556">
        <ele>9.8</ele>
        <time>2020-02-29T11:41:34Z</time>
      </trkpt>
      <trkpt lat="55.900357261948" lon="14.272889253854">
        <ele>10.2</ele>
        <time>2020-02-29T11:41:35Z</time>
      </trkpt>
      <trkpt lat="55.900546860526" lon="14.273002074228">
        <ele>11.4</ele>
        <time>2020-02-29T11:41:42Z</time>
      </trkpt>
      <trkpt lat="55.900621291798" lon="14.272981203297">
        <ele>12.4</ele>
        <time>2020-02-29T11:41:46Z</time>
      </trkpt>
      <trkpt lat="55.90065800452" lon="14.272995787803">
        <ele>13.4</ele>
        <time>2020-02-29T11:41:48Z</time>
      </trkpt>
      <trkpt lat="55.900693376138" lon="14.273014563259">
        <ele>14</ele>
        <time>2020-02-29T11:41:49Z</time>
      </trkpt>
      <trkpt lat="55.900717180734" lon="14.273032500525">
        <ele>14.6</ele>
        <time>2020-02-29T11:41:50Z</time>
      </trkpt>
      <trkpt lat="55.900756743302" lon="14.273044319004">
        <ele>15.8</ele>
        <time>2020-02-29T11:41:52Z</time>
      </trkpt>
      <trkpt lat="55.900807369978" lon="14.273075164396">
        <ele>17.2</ele>
        <time>2020-02-29T11:41:55Z</time>
      </trkpt>
      <trkpt lat="55.90097400215" lon="14.273277838738">
        <ele>17</ele>
        <time>2020-02-29T11:42:05Z</time>
      </trkpt>
      <trkpt lat="55.90109051056" lon="14.273352186191">
        <ele>16</ele>
        <time>2020-02-29T11:42:10Z</time>
      </trkpt>
      <trkpt lat="55.90112822911" lon="14.27338495942">
        <ele>14.6</ele>
        <time>2020-02-29T11:42:12Z</time>
      </trkpt>
      <trkpt lat="55.901178436691" lon="14.2734117815">
        <ele>13</ele>
        <time>2020-02-29T11:42:14Z</time>
      </trkpt>
      <trkpt lat="55.901242725864" lon="14.27344866186">
        <ele>11.8</ele>
        <time>2020-02-29T11:42:16Z</time>
      </trkpt>
      <trkpt lat="55.901304500467" lon="14.273448997136">
        <ele>10.8</ele>
        <time>2020-02-29T11:42:19Z</time>
      </trkpt>
      <trkpt lat="55.901417739936" lon="14.273453271905">
        <ele>10</ele>
        <time>2020-02-29T11:42:24Z</time>
      </trkpt>
      <trkpt lat="55.901452021907" lon="14.273441704883">
        <ele>9.8</ele>
        <time>2020-02-29T11:42:26Z</time>
      </trkpt>
      <trkpt lat="55.901560148417" lon="14.273431981879">
        <ele>9.8</ele>
        <time>2020-02-29T11:42:32Z</time>
      </trkpt>
      <trkpt lat="55.901651008213" lon="14.273301391877">
        <ele>9.4</ele>
        <time>2020-02-29T11:42:36Z</time>
      </trkpt>
      <trkpt lat="55.90176190075" lon="14.273040379511">
        <ele>9.6</ele>
        <time>2020-02-29T11:42:41Z</time>
      </trkpt>
      <trkpt lat="55.90186583631" lon="14.272761094603">
        <ele>9.8</ele>
        <time>2020-02-29T11:42:46Z</time>
      </trkpt>
      <trkpt lat="55.901919815746" lon="14.27244031929">
        <ele>10.4</ele>
        <time>2020-02-29T11:42:51Z</time>
      </trkpt>
      <trkpt lat="55.901965832377" lon="14.272105965299">
        <ele>9.4</ele>
        <time>2020-02-29T11:42:57Z</time>
      </trkpt>
      <trkpt lat="55.901977734675" lon="14.271973279822">
        <ele>9.2</ele>
        <time>2020-02-29T11:43:00Z</time>
      </trkpt>
      <trkpt lat="55.901987457679" lon="14.271931035046">
        <ele>9.4</ele>
        <time>2020-02-29T11:43:02Z</time>
      </trkpt>
      <trkpt lat="55.902070103213" lon="14.271874457221">
        <ele>10.2</ele>
        <time>2020-02-29T11:43:10Z</time>
      </trkpt>
      <trkpt lat="55.902136152585" lon="14.271872697022">
        <ele>10</ele>
        <time>2020-02-29T11:43:15Z</time>
      </trkpt>
      <trkpt lat="55.902168339081" lon="14.271935309815">
        <ele>10</ele>
        <time>2020-02-29T11:43:19Z</time>
      </trkpt>
      <trkpt lat="55.902198430102" lon="14.271967077216">
        <ele>10</ele>
        <time>2020-02-29T11:43:21Z</time>
      </trkpt>
      <trkpt lat="55.902226341829" lon="14.271985265939">
        <ele>10</ele>
        <time>2020-02-29T11:43:23Z</time>
      </trkpt>
      <trkpt lat="55.902352740881" lon="14.272009741087">
        <ele>10.8</ele>
        <time>2020-02-29T11:43:28Z</time>
      </trkpt>
      <trkpt lat="55.902368666491" lon="14.272014854046">
        <ele>12.6</ele>
        <time>2020-02-29T11:43:30Z</time>
      </trkpt>
      <trkpt lat="55.902393225458" lon="14.272038071909">
        <ele>14</ele>
        <time>2020-02-29T11:43:32Z</time>
      </trkpt>
      <trkpt lat="55.902453491319" lon="14.272190203394">
        <ele>12.4</ele>
        <time>2020-02-29T11:43:37Z</time>
      </trkpt>
      <trkpt lat="55.902477631191" lon="14.272216606379">
        <ele>11.2</ele>
        <time>2020-02-29T11:43:39Z</time>
      </trkpt>
      <trkpt lat="55.902501603425" lon="14.27222825722">
        <ele>10.4</ele>
        <time>2020-02-29T11:43:41Z</time>
      </trkpt>
      <trkpt lat="55.902514343913" lon="14.272236303844">
        <ele>10</ele>
        <time>2020-02-29T11:43:42Z</time>
      </trkpt>
      <trkpt lat="55.902540495441" lon="14.272288439262">
        <ele>9.8</ele>
        <time>2020-02-29T11:43:44Z</time>
      </trkpt>
      <trkpt lat="55.902611741591" lon="14.272350297684">
        <ele>9.6</ele>
        <time>2020-02-29T11:43:47Z</time>
      </trkpt>
      <trkpt lat="55.902811649906" lon="14.272416347056">
        <ele>10.8</ele>
        <time>2020-02-29T11:43:56Z</time>
      </trkpt>
      <trkpt lat="55.90285825327" lon="14.272479043668">
        <ele>11</ele>
        <time>2020-02-29T11:43:58Z</time>
      </trkpt>
      <trkpt lat="55.90301415661" lon="14.272635533741">
        <ele>10.8</ele>
        <time>2020-02-29T11:44:04Z</time>
      </trkpt>
      <trkpt lat="55.90309797561" lon="14.272711306117">
        <ele>10</ele>
        <time>2020-02-29T11:44:07Z</time>
      </trkpt>
      <trkpt lat="55.903123708043" lon="14.272717927818">
        <ele>9.6</ele>
        <time>2020-02-29T11:44:08Z</time>
      </trkpt>
      <trkpt lat="55.903293106242" lon="14.272838962454">
        <ele>10</ele>
        <time>2020-02-29T11:44:15Z</time>
      </trkpt>
      <trkpt lat="55.903357982148" lon="14.272889840587">
        <ele>11.4</ele>
        <time>2020-02-29T11:44:18Z</time>
      </trkpt>
      <trkpt lat="55.90341648781" lon="14.272927223861">
        <ele>12.4</ele>
        <time>2020-02-29T11:44:21Z</time>
      </trkpt>
      <trkpt lat="55.903608517139" lon="14.272966786429">
        <ele>12.2</ele>
        <time>2020-02-29T11:44:27Z</time>
      </trkpt>
      <trkpt lat="55.903695018347" lon="14.273015988182">
        <ele>11.2</ele>
        <time>2020-02-29T11:44:29Z</time>
      </trkpt>
      <trkpt lat="55.903757966416" lon="14.273069045609">
        <ele>10.2</ele>
        <time>2020-02-29T11:44:32Z</time>
      </trkpt>
      <trkpt lat="55.903791326378" lon="14.273101148286">
        <ele>10.2</ele>
        <time>2020-02-29T11:44:35Z</time>
      </trkpt>
      <trkpt lat="55.903788141256" lon="14.273265684983">
        <ele>10.2</ele>
        <time>2020-02-29T11:44:42Z</time>
      </trkpt>
      <trkpt lat="55.903797361346" lon="14.273308767949">
        <ele>10.4</ele>
        <time>2020-02-29T11:44:44Z</time>
      </trkpt>
      <trkpt lat="55.903775149311" lon="14.273467437316">
        <ele>10.8</ele>
        <time>2020-02-29T11:44:50Z</time>
      </trkpt>
      <trkpt lat="55.903778753528" lon="14.273581598794">
        <ele>11</ele>
        <time>2020-02-29T11:44:52Z</time>
      </trkpt>
      <trkpt lat="55.903794679138" lon="14.273627783063">
        <ele>11.4</ele>
        <time>2020-02-29T11:44:53Z</time>
      </trkpt>
      <trkpt lat="55.903819573381" lon="14.273742531274">
        <ele>11.2</ele>
        <time>2020-02-29T11:44:57Z</time>
      </trkpt>
      <trkpt lat="55.903857291931" lon="14.273870606706">
        <ele>10.4</ele>
        <time>2020-02-29T11:45:02Z</time>
      </trkpt>
      <trkpt lat="55.903873133722" lon="14.27390379903">
        <ele>10.2</ele>
        <time>2020-02-29T11:45:04Z</time>
      </trkpt>
      <trkpt lat="55.903885119839" lon="14.273920814287">
        <ele>10.2</ele>
        <time>2020-02-29T11:45:05Z</time>
      </trkpt>
      <trkpt lat="55.90394706208" lon="14.273945792349">
        <ele>10.2</ele>
        <time>2020-02-29T11:45:08Z</time>
      </trkpt>
      <trkpt lat="55.90398394244" lon="14.2739649869">
        <ele>11.2</ele>
        <time>2020-02-29T11:45:11Z</time>
      </trkpt>
      <trkpt lat="55.904013698185" lon="14.27402952753">
        <ele>11.6</ele>
        <time>2020-02-29T11:45:14Z</time>
      </trkpt>
      <trkpt lat="55.904025181388" lon="14.274023827838">
        <ele>10</ele>
        <time>2020-02-29T11:45:18Z</time>
      </trkpt>
      <trkpt lat="55.904053931305" lon="14.273970518954">
        <ele>9</ele>
        <time>2020-02-29T11:45:27Z</time>
      </trkpt>
      <trkpt lat="55.904083770869" lon="14.273846885929">
        <ele>9</ele>
        <time>2020-02-29T11:45:33Z</time>
      </trkpt>
      <trkpt lat="55.904089135285" lon="14.273820650582">
        <ele>9</ele>
        <time>2020-02-29T11:45:35Z</time>
      </trkpt>
      <trkpt lat="55.904113526614" lon="14.273717972307">
        <ele>9.2</ele>
        <time>2020-02-29T11:45:39Z</time>
      </trkpt>
      <trkpt lat="55.904118974849" lon="14.273673715875">
        <ele>9.2</ele>
        <time>2020-02-29T11:45:40Z</time>
      </trkpt>
      <trkpt lat="55.904150993707" lon="14.273467604954">
        <ele>9.4</ele>
        <time>2020-02-29T11:45:45Z</time>
      </trkpt>
      <trkpt lat="55.904225424979" lon="14.273317820401">
        <ele>9.8</ele>
        <time>2020-02-29T11:45:50Z</time>
      </trkpt>
      <trkpt lat="55.904289630333" lon="14.272964607135">
        <ele>10.6</ele>
        <time>2020-02-29T11:45:57Z</time>
      </trkpt>
      <trkpt lat="55.90433346767" lon="14.272783893371">
        <ele>11.2</ele>
        <time>2020-02-29T11:46:00Z</time>
      </trkpt>
      <trkpt lat="55.904350063832" lon="14.272464710619">
        <ele>11.8</ele>
        <time>2020-02-29T11:46:06Z</time>
      </trkpt>
      <trkpt lat="55.904319386078" lon="14.272194897258">
        <ele>10.6</ele>
        <time>2020-02-29T11:46:12Z</time>
      </trkpt>
      <trkpt lat="55.904258617303" lon="14.272129937533">
        <ele>10.2</ele>
        <time>2020-02-29T11:46:16Z</time>
      </trkpt>
      <trkpt lat="55.904198351442" lon="14.272117364683">
        <ele>10.4</ele>
        <time>2020-02-29T11:46:21Z</time>
      </trkpt>
      <trkpt lat="55.90417672614" lon="14.272125495126">
        <ele>10.6</ele>
        <time>2020-02-29T11:46:23Z</time>
      </trkpt>
      <trkpt lat="55.904006825027" lon="14.271988031966">
        <ele>10.2</ele>
        <time>2020-02-29T11:46:35Z</time>
      </trkpt>
      <trkpt lat="55.903810688567" lon="14.271879067266">
        <ele>10.8</ele>
        <time>2020-02-29T11:46:44Z</time>
      </trkpt>
      <trkpt lat="55.903767186506" lon="14.271833218273">
        <ele>11.2</ele>
        <time>2020-02-29T11:46:46Z</time>
      </trkpt>
      <trkpt lat="55.903699376935" lon="14.271780915217">
        <ele>12.4</ele>
        <time>2020-02-29T11:46:49Z</time>
      </trkpt>
      <trkpt lat="55.903640200721" lon="14.27176389996">
        <ele>13.6</ele>
        <time>2020-02-29T11:46:53Z</time>
      </trkpt>
      <trkpt lat="55.903626202948" lon="14.271758367906">
        <ele>13.6</ele>
        <time>2020-02-29T11:46:54Z</time>
      </trkpt>
      <trkpt lat="55.903569625123" lon="14.271725091763">
        <ele>13.2</ele>
        <time>2020-02-29T11:46:57Z</time>
      </trkpt>
      <trkpt lat="55.903544898518" lon="14.271721655184">
        <ele>12.4</ele>
        <time>2020-02-29T11:46:58Z</time>
      </trkpt>
      <trkpt lat="55.903495361489" lon="14.271711345447">
        <ele>10.8</ele>
        <time>2020-02-29T11:47:00Z</time>
      </trkpt>
      <trkpt lat="55.90343157523" lon="14.271701370986">
        <ele>9.6</ele>
        <time>2020-02-29T11:47:03Z</time>
      </trkpt>
      <trkpt lat="55.903245748507" lon="14.271730120903">
        <ele>10</ele>
        <time>2020-02-29T11:47:10Z</time>
      </trkpt>
      <trkpt lat="55.903063358363" lon="14.271760966295">
        <ele>10.4</ele>
        <time>2020-02-29T11:47:15Z</time>
      </trkpt>
      <trkpt lat="55.902873173052" lon="14.271749734549">
        <ele>10.4</ele>
        <time>2020-02-29T11:47:21Z</time>
      </trkpt>
      <trkpt lat="55.902821708186" lon="14.271746884703">
        <ele>10.8</ele>
        <time>2020-02-29T11:47:23Z</time>
      </trkpt>
      <trkpt lat="55.902794969925" lon="14.271758619363">
        <ele>11.2</ele>
        <time>2020-02-29T11:47:25Z</time>
      </trkpt>
      <trkpt lat="55.902783402903" lon="14.27189633398">
        <ele>10.8</ele>
        <time>2020-02-29T11:47:34Z</time>
      </trkpt>
      <trkpt lat="55.902745181439" lon="14.271926005906">
        <ele>11.2</ele>
        <time>2020-02-29T11:47:36Z</time>
      </trkpt>
      <trkpt lat="55.902562539838" lon="14.271951570701">
        <ele>11.4</ele>
        <time>2020-02-29T11:47:42Z</time>
      </trkpt>
      <trkpt lat="55.902491293688" lon="14.271983170464">
        <ele>12.2</ele>
        <time>2020-02-29T11:47:46Z</time>
      </trkpt>
      <trkpt lat="55.90246011302" lon="14.272025331421">
        <ele>12.4</ele>
        <time>2020-02-29T11:47:48Z</time>
      </trkpt>
      <trkpt lat="55.902441589021" lon="14.272086686929">
        <ele>13.4</ele>
        <time>2020-02-29T11:47:50Z</time>
      </trkpt>
      <trkpt lat="55.902421472461" lon="14.272146198419">
        <ele>14.4</ele>
        <time>2020-02-29T11:47:52Z</time>
      </trkpt>
      <trkpt lat="55.902391549078" lon="14.272281985199">
        <ele>15.4</ele>
        <time>2020-02-29T11:47:56Z</time>
      </trkpt>
      <trkpt lat="55.902368331215" lon="14.272383573827">
        <ele>16.6</ele>
        <time>2020-02-29T11:47:59Z</time>
      </trkpt>
      <trkpt lat="55.902314184141" lon="14.272689513177">
        <ele>16.8</ele>
        <time>2020-02-29T11:48:06Z</time>
      </trkpt>
      <trkpt lat="55.902266323492" lon="14.273010959042">
        <ele>16.4</ele>
        <time>2020-02-29T11:48:13Z</time>
      </trkpt>
      <trkpt lat="55.902190718754" lon="14.273197121041">
        <ele>15.2</ele>
        <time>2020-02-29T11:48:18Z</time>
      </trkpt>
      <trkpt lat="55.902161298285" lon="14.273307259207">
        <ele>13.8</ele>
        <time>2020-02-29T11:48:21Z</time>
      </trkpt>
      <trkpt lat="55.902133889472" lon="14.273457965769">
        <ele>12.2</ele>
        <time>2020-02-29T11:48:24Z</time>
      </trkpt>
      <trkpt lat="55.902093740171" lon="14.273796929805">
        <ele>11.2</ele>
        <time>2020-02-29T11:48:31Z</time>
      </trkpt>
      <trkpt lat="55.902054345241" lon="14.273977978845">
        <ele>10</ele>
        <time>2020-02-29T11:48:34Z</time>
      </trkpt>
      <trkpt lat="55.902040850382" lon="14.274059031818">
        <ele>10.4</ele>
        <time>2020-02-29T11:48:35Z</time>
      </trkpt>
      <trkpt lat="55.902035402147" lon="14.274191968752">
        <ele>11.4</ele>
        <time>2020-02-29T11:48:37Z</time>
      </trkpt>
      <trkpt lat="55.902022745478" lon="14.274444096304">
        <ele>12.6</ele>
        <time>2020-02-29T11:48:40Z</time>
      </trkpt>
      <trkpt lat="55.90202676879" lon="14.2745936294">
        <ele>13.4</ele>
        <time>2020-02-29T11:48:44Z</time>
      </trkpt>
      <trkpt lat="55.902017045786" lon="14.274606453707">
        <ele>13.6</ele>
        <time>2020-02-29T11:48:45Z</time>
      </trkpt>
      <trkpt lat="55.902010926999" lon="14.274627240819">
        <ele>13.6</ele>
        <time>2020-02-29T11:48:46Z</time>
      </trkpt>
      <trkpt lat="55.902001287814" lon="14.274682980454">
        <ele>13.4</ele>
        <time>2020-02-29T11:48:48Z</time>
      </trkpt>
      <trkpt lat="55.902002880375" lon="14.27475791464">
        <ele>13.2</ele>
        <time>2020-02-29T11:48:50Z</time>
      </trkpt>
      <trkpt lat="55.902044035504" lon="14.274979448257">
        <ele>15</ele>
        <time>2020-02-29T11:48:55Z</time>
      </trkpt>
      <trkpt lat="55.902058452372" lon="14.275015155151">
        <ele>16.2</ele>
        <time>2020-02-29T11:48:56Z</time>
      </trkpt>
      <trkpt lat="55.902070019394" lon="14.275052789882">
        <ele>17.2</ele>
        <time>2020-02-29T11:48:57Z</time>
      </trkpt>
      <trkpt lat="55.902107318849" lon="14.275388317339">
        <ele>16.6</ele>
        <time>2020-02-29T11:49:04Z</time>
      </trkpt>
      <trkpt lat="55.902118885871" lon="14.275520248445">
        <ele>16.2</ele>
        <time>2020-02-29T11:49:07Z</time>
      </trkpt>
      <trkpt lat="55.902171021289" lon="14.275654358845">
        <ele>18</ele>
        <time>2020-02-29T11:49:11Z</time>
      </trkpt>
      <trkpt lat="55.902206476726" lon="14.275716720181">
        <ele>19.6</ele>
        <time>2020-02-29T11:49:13Z</time>
      </trkpt>
      <trkpt lat="55.902279399256" lon="14.275817051524">
        <ele>20.6</ele>
        <time>2020-02-29T11:49:17Z</time>
      </trkpt>
      <trkpt lat="55.902337821099" lon="14.276071023094">
        <ele>19.6</ele>
        <time>2020-02-29T11:49:23Z</time>
      </trkpt>
      <trkpt lat="55.902338240194" lon="14.276114273698">
        <ele>19.2</ele>
        <time>2020-02-29T11:49:24Z</time>
      </trkpt>
      <trkpt lat="55.902338826927" lon="14.276180658346">
        <ele>18.6</ele>
        <time>2020-02-29T11:49:26Z</time>
      </trkpt>
      <trkpt lat="55.902349555759" lon="14.276223406036">
        <ele>18</ele>
        <time>2020-02-29T11:49:27Z</time>
      </trkpt>
      <trkpt lat="55.902492383335" lon="14.276449214422">
        <ele>17.6</ele>
        <time>2020-02-29T11:49:35Z</time>
      </trkpt>
      <trkpt lat="55.902688016881" lon="14.276463715109">
        <ele>18.4</ele>
        <time>2020-02-29T11:49:44Z</time>
      </trkpt>
      <trkpt lat="55.902833610484" lon="14.276547617928">
        <ele>16.2</ele>
        <time>2020-02-29T11:49:50Z</time>
      </trkpt>
      <trkpt lat="55.90287585526" lon="14.276535212716">
        <ele>14.8</ele>
        <time>2020-02-29T11:49:52Z</time>
      </trkpt>
      <trkpt lat="55.902970906006" lon="14.276547366471">
        <ele>13.4</ele>
        <time>2020-02-29T11:49:56Z</time>
      </trkpt>
      <trkpt lat="55.903034776084" lon="14.276488106438">
        <ele>12.2</ele>
        <time>2020-02-29T11:49:59Z</time>
      </trkpt>
      <trkpt lat="55.903177184565" lon="14.27628509682">
        <ele>11.6</ele>
        <time>2020-02-29T11:50:05Z</time>
      </trkpt>
      <trkpt lat="55.903376170871" lon="14.276162218166">
        <ele>11.8</ele>
        <time>2020-02-29T11:50:11Z</time>
      </trkpt>
      <trkpt lat="55.903461833889" lon="14.276184849296">
        <ele>11.2</ele>
        <time>2020-02-29T11:50:14Z</time>
      </trkpt>
      <trkpt lat="55.903646822422" lon="14.276258610016">
        <ele>10.4</ele>
        <time>2020-02-29T11:50:21Z</time>
      </trkpt>
      <trkpt lat="55.903750590344" lon="14.276262884785">
        <ele>10.2</ele>
        <time>2020-02-29T11:50:26Z</time>
      </trkpt>
      <trkpt lat="55.903769449619" lon="14.276254586704">
        <ele>10.2</ele>
        <time>2020-02-29T11:50:27Z</time>
      </trkpt>
      <trkpt lat="55.903945720976" lon="14.27617445574">
        <ele>10.2</ele>
        <time>2020-02-29T11:50:34Z</time>
      </trkpt>
      <trkpt lat="55.904050578545" lon="14.276085691419">
        <ele>11.2</ele>
        <time>2020-02-29T11:50:39Z</time>
      </trkpt>
      <trkpt lat="55.90424881048" lon="14.27603783077">
        <ele>11.2</ele>
        <time>2020-02-29T11:50:47Z</time>
      </trkpt>
      <trkpt lat="55.90427898532" lon="14.276018217124">
        <ele>11.2</ele>
        <time>2020-02-29T11:50:48Z</time>
      </trkpt>
      <trkpt lat="55.904423154" lon="14.275822918854">
        <ele>10.4</ele>
        <time>2020-02-29T11:50:55Z</time>
      </trkpt>
      <trkpt lat="55.904512337416" lon="14.275743123166">
        <ele>10.2</ele>
        <time>2020-02-29T11:50:58Z</time>
      </trkpt>
      <trkpt lat="55.90462515779" lon="14.27562208853">
        <ele>10.8</ele>
        <time>2020-02-29T11:51:04Z</time>
      </trkpt>
      <trkpt lat="55.904644017065" lon="14.275556542072">
        <ele>11.4</ele>
        <time>2020-02-29T11:51:06Z</time>
      </trkpt>
      <trkpt lat="55.904664887996" lon="14.275494767469">
        <ele>12</ele>
        <time>2020-02-29T11:51:08Z</time>
      </trkpt>
      <trkpt lat="55.90465533263" lon="14.275432489952">
        <ele>12.6</ele>
        <time>2020-02-29T11:51:10Z</time>
      </trkpt>
      <trkpt lat="55.904632617681" lon="14.275347246029">
        <ele>13.2</ele>
        <time>2020-02-29T11:51:12Z</time>
      </trkpt>
      <trkpt lat="55.904626582713" lon="14.275321345958">
        <ele>13</ele>
        <time>2020-02-29T11:51:15Z</time>
      </trkpt>
      <trkpt lat="55.904667989299" lon="14.275342803622">
        <ele>12.2</ele>
        <time>2020-02-29T11:51:30Z</time>
      </trkpt>
      <trkpt lat="55.904702187451" lon="14.275386138045">
        <ele>12.2</ele>
        <time>2020-02-29T11:51:33Z</time>
      </trkpt>
      <trkpt lat="55.904718280699" lon="14.275374487204">
        <ele>12.2</ele>
        <time>2020-02-29T11:51:36Z</time>
      </trkpt>
      <trkpt lat="55.904690368972" lon="14.275243729564">
        <ele>12.6</ele>
        <time>2020-02-29T11:51:40Z</time>
      </trkpt>
      <trkpt lat="55.904668408394" lon="14.27516108403">
        <ele>12.8</ele>
        <time>2020-02-29T11:51:42Z</time>
      </trkpt>
      <trkpt lat="55.904641502495" lon="14.275108445698">
        <ele>13.2</ele>
        <time>2020-02-29T11:51:44Z</time>
      </trkpt>
      <trkpt lat="55.904628259093" lon="14.275084305826">
        <ele>13</ele>
        <time>2020-02-29T11:51:46Z</time>
      </trkpt>
      <trkpt lat="55.904809475771" lon="14.275015658065">
        <ele>13</ele>
        <time>2020-02-29T11:51:57Z</time>
      </trkpt>
      <trkpt lat="55.904992033553" lon="14.27485514468">
        <ele>11.4</ele>
        <time>2020-02-29T11:52:03Z</time>
      </trkpt>
      <trkpt lat="55.905036038528" lon="14.274723045936">
        <ele>10.2</ele>
        <time>2020-02-29T11:52:06Z</time>
      </trkpt>
      <trkpt lat="55.905116001854" lon="14.274623301326">
        <ele>12</ele>
        <time>2020-02-29T11:52:10Z</time>
      </trkpt>
      <trkpt lat="55.905177189724" lon="14.274553815375">
        <ele>13</ele>
        <time>2020-02-29T11:52:13Z</time>
      </trkpt>
      <trkpt lat="55.905193618248" lon="14.274517857024">
        <ele>12.8</ele>
        <time>2020-02-29T11:52:14Z</time>
      </trkpt>
      <trkpt lat="55.905212896618" lon="14.274432026368">
        <ele>12.6</ele>
        <time>2020-02-29T11:52:16Z</time>
      </trkpt>
      <trkpt lat="55.90524038925" lon="14.274350889576">
        <ele>11.8</ele>
        <time>2020-02-29T11:52:18Z</time>
      </trkpt>
      <trkpt lat="55.905258158878" lon="14.274248965672">
        <ele>11.8</ele>
        <time>2020-02-29T11:52:20Z</time>
      </trkpt>
      <trkpt lat="55.905355808013" lon="14.273967669108">
        <ele>11.4</ele>
        <time>2020-02-29T11:52:25Z</time>
      </trkpt>
      <trkpt lat="55.905465275627" lon="14.27366491488">
        <ele>12</ele>
        <time>2020-02-29T11:52:31Z</time>
      </trkpt>
      <trkpt lat="55.905512465724" lon="14.273610683987">
        <ele>12.2</ele>
        <time>2020-02-29T11:52:33Z</time>
      </trkpt>
      <trkpt lat="55.905521601995" lon="14.27358444864">
        <ele>11.8</ele>
        <time>2020-02-29T11:52:35Z</time>
      </trkpt>
      <trkpt lat="55.905603493158" lon="14.273431478965">
        <ele>11.6</ele>
        <time>2020-02-29T11:52:40Z</time>
      </trkpt>
      <trkpt lat="55.905682031561" lon="14.273058484415">
        <ele>11.6</ele>
        <time>2020-02-29T11:52:46Z</time>
      </trkpt>
      <trkpt lat="55.905726790907" lon="14.272738379654">
        <ele>11</ele>
        <time>2020-02-29T11:52:51Z</time>
      </trkpt>
      <trkpt lat="55.905729137839" lon="14.272686160417">
        <ele>10.6</ele>
        <time>2020-02-29T11:52:52Z</time>
      </trkpt>
      <trkpt lat="55.905764928552" lon="14.272384412017">
        <ele>10.8</ele>
        <time>2020-02-29T11:52:58Z</time>
      </trkpt>
      <trkpt lat="55.905716313532" lon="14.272052907872">
        <ele>11</ele>
        <time>2020-02-29T11:53:04Z</time>
      </trkpt>
      <trkpt lat="55.90566032244" lon="14.271912678685">
        <ele>11.8</ele>
        <time>2020-02-29T11:53:06Z</time>
      </trkpt>
      <trkpt lat="55.905554375224" lon="14.271589891716">
        <ele>12.4</ele>
        <time>2020-02-29T11:53:11Z</time>
      </trkpt>
      <trkpt lat="55.905421019195" lon="14.271300213252">
        <ele>12</ele>
        <time>2020-02-29T11:53:17Z</time>
      </trkpt>
      <trkpt lat="55.905380031704" lon="14.270950688022">
        <ele>12.2</ele>
        <time>2020-02-29T11:53:24Z</time>
      </trkpt>
      <trkpt lat="55.905387826871" lon="14.270814482147">
        <ele>12.8</ele>
        <time>2020-02-29T11:53:26Z</time>
      </trkpt>
      <trkpt lat="55.905411715286" lon="14.270435955543">
        <ele>13.6</ele>
        <time>2020-02-29T11:53:31Z</time>
      </trkpt>
      <trkpt lat="55.905455636442" lon="14.270269658647">
        <ele>13.6</ele>
        <time>2020-02-29T11:53:33Z</time>
      </trkpt>
      <trkpt lat="55.905468125473" lon="14.270195814108">
        <ele>14</ele>
        <time>2020-02-29T11:53:34Z</time>
      </trkpt>
      <trkpt lat="55.905505592566" lon="14.269923737634">
        <ele>14.2</ele>
        <time>2020-02-29T11:53:38Z</time>
      </trkpt>
      <trkpt lat="55.905496456295" lon="14.269877804822">
        <ele>14.4</ele>
        <time>2020-02-29T11:53:40Z</time>
      </trkpt>
    </trkseg>
  </trk>
</gpx>